<?xml version='1.0' encoding='UTF-8'?><gpx version="1.1" creator="JPX - https://github.com/jenetics/jpx" xmlns="http://www.topografix.com/GPX/1/1"><trk><trkseg><trkpt lat="45.58704258098244" lon="11.180252870140261"><ele>844.9999999999999</ele><time>2026-04-26T07:54:32Z</time></trkpt><trkpt lat="45.5869828597618" lon="11.180207353116542"><ele>845.0</ele><time>2026-04-26T07:56:51Z</time></trkpt><trkpt lat="45.58701822756547" lon="11.180283573182527"><ele>845.0</ele><time>2026-04-26T08:00:16Z</time></trkpt><trkpt lat="45.58706777735798" lon="11.180393757694203"><ele>845.0</ele><time>2026-04-26T08:00:29Z</time></trkpt><trkpt lat="45.58704338385201" lon="11.180301933944214"><ele>845.0</ele><time>2026-04-26T08:00:55.003Z</time></trkpt><trkpt lat="45.58696498086428" lon="11.180242709804505"><ele>844.9999999999999</ele><time>2026-04-26T08:01:16.003Z</time></trkpt><trkpt lat="45.586914555202576" lon="11.180296861823754"><ele>845.0</ele><time>2026-04-26T08:01:26.003Z</time></trkpt><trkpt lat="45.586969731822805" lon="11.180351617812955"><ele>845.0000000000001</ele><time>2026-04-26T08:01:55.002Z</time></trkpt><trkpt lat="45.587017970357735" lon="11.180438525761344"><ele>845.0</ele><time>2026-04-26T08:01:57.002Z</time></trkpt><trkpt lat="45.5871157036247" lon="11.18050674632421"><ele>845.0</ele><time>2026-04-26T08:01:59.002Z</time></trkpt><trkpt lat="45.58717399354498" lon="11.180566761173246"><ele>845.0</ele><time>2026-04-26T08:02:01.002Z</time></trkpt><trkpt lat="45.58723470294641" lon="11.180672339865831"><ele>845.0000000000001</ele><time>2026-04-26T08:02:04.002Z</time></trkpt><trkpt lat="45.58724506198552" lon="11.180779022115935"><ele>845.0</ele><time>2026-04-26T08:02:06.002Z</time></trkpt><trkpt lat="45.5872307689077" lon="11.180880128673321"><ele>845.0000000000001</ele><time>2026-04-26T08:02:09.002Z</time></trkpt><trkpt lat="45.58723610941835" lon="11.180971605012845"><ele>845.0</ele><time>2026-04-26T08:02:12.002Z</time></trkpt><trkpt lat="45.58729209766572" lon="11.180898628682565"><ele>845.0</ele><time>2026-04-26T08:02:17.002Z</time></trkpt><trkpt lat="45.58732845002555" lon="11.180789564926389"><ele>845.0</ele><time>2026-04-26T08:02:21.001Z</time></trkpt><trkpt lat="45.58733333933845" lon="11.180674125012915"><ele>845.0000000000001</ele><time>2026-04-26T08:02:24.001Z</time></trkpt><trkpt lat="45.587282562421954" lon="11.180586272358658"><ele>845.0</ele><time>2026-04-26T08:02:27.001Z</time></trkpt><trkpt lat="45.58722872966801" lon="11.180514675544936"><ele>844.9999999999999</ele><time>2026-04-26T08:02:30.001Z</time></trkpt><trkpt lat="45.587184502687926" lon="11.1804323931398"><ele>845.0</ele><time>2026-04-26T08:02:33.001Z</time></trkpt><trkpt lat="45.58713577378059" lon="11.18034529216015"><ele>845.0</ele><time>2026-04-26T08:02:36.001Z</time></trkpt><trkpt lat="45.587084005701996" lon="11.180258085828868"><ele>845.0</ele><time>2026-04-26T08:02:39.001Z</time></trkpt><trkpt lat="45.58704915184162" lon="11.180161383999383"><ele>845.0</ele><time>2026-04-26T08:02:42.001Z</time></trkpt><trkpt lat="45.587007214101895" lon="11.180069012338901"><ele>844.9999999999999</ele><time>2026-04-26T08:02:45.003Z</time></trkpt><trkpt lat="45.58697816967613" lon="11.179985506385837"><ele>845.0</ele><time>2026-04-26T08:02:48.002Z</time></trkpt><trkpt lat="45.587040839768406" lon="11.179901108644572"><ele>844.9999999999999</ele><time>2026-04-26T08:02:51.003Z</time></trkpt><trkpt lat="45.58710426342478" lon="11.17988942524975"><ele>845.0</ele><time>2026-04-26T08:02:54.002Z</time></trkpt><trkpt lat="45.587169206073874" lon="11.179869075761736"><ele>845.0</ele><time>2026-04-26T08:02:57.003Z</time></trkpt><trkpt lat="45.5872332597972" lon="11.179890654743538"><ele>845.0</ele><time>2026-04-26T08:03:00.003Z</time></trkpt><trkpt lat="45.587306536195264" lon="11.179926624666939"><ele>845.0</ele><time>2026-04-26T08:03:04.003Z</time></trkpt><trkpt lat="45.587360975630624" lon="11.179974982122369"><ele>844.9999999999999</ele><time>2026-04-26T08:03:08.003Z</time></trkpt><trkpt lat="45.58742794825877" lon="11.179988330151486"><ele>845.0</ele><time>2026-04-26T08:03:16.003Z</time></trkpt><trkpt lat="45.58749281111113" lon="11.180010442939976"><ele>844.9999999999999</ele><time>2026-04-26T08:03:21.003Z</time></trkpt><trkpt lat="45.58755467723808" lon="11.180034111933704"><ele>845.0</ele><time>2026-04-26T08:03:26.003Z</time></trkpt><trkpt lat="45.58763009116898" lon="11.180038177691038"><ele>845.0</ele><time>2026-04-26T08:03:31.003Z</time></trkpt><trkpt lat="45.58771879914992" lon="11.180055825874852"><ele>845.0</ele><time>2026-04-26T08:03:35.003Z</time></trkpt><trkpt lat="45.58778047301065" lon="11.18007738099592"><ele>845.0</ele><time>2026-04-26T08:03:38.003Z</time></trkpt><trkpt lat="45.58784403673065" lon="11.180098908466169"><ele>844.9999999999999</ele><time>2026-04-26T08:03:41.003Z</time></trkpt><trkpt lat="45.5879196893839" lon="11.180131918795166"><ele>845.0</ele><time>2026-04-26T08:03:45.002Z</time></trkpt><trkpt lat="45.58797914324981" lon="11.180180489307654"><ele>847.0000000000001</ele><time>2026-04-26T08:03:49.002Z</time></trkpt><trkpt lat="45.58804613637099" lon="11.180237247184834"><ele>849.0</ele><time>2026-04-26T08:03:53.002Z</time></trkpt><trkpt lat="45.58810473315697" lon="11.180316262692799"><ele>851.0</ele><time>2026-04-26T08:03:57.002Z</time></trkpt><trkpt lat="45.58816267378735" lon="11.180399091789416"><ele>853.0</ele><time>2026-04-26T08:04:01.002Z</time></trkpt><trkpt lat="45.588218961283445" lon="11.18045238207835"><ele>855.0000000000001</ele><time>2026-04-26T08:04:04.002Z</time></trkpt><trkpt lat="45.58827113402792" lon="11.180531243091167"><ele>857.0</ele><time>2026-04-26T08:04:07.002Z</time></trkpt><trkpt lat="45.58833311381099" lon="11.180579093562825"><ele>857.0</ele><time>2026-04-26T08:04:10.002Z</time></trkpt><trkpt lat="45.58839497606014" lon="11.180619237787983"><ele>857.0</ele><time>2026-04-26T08:04:13.002Z</time></trkpt><trkpt lat="45.58846356060799" lon="11.180656146632488"><ele>857.0</ele><time>2026-04-26T08:04:16.002Z</time></trkpt><trkpt lat="45.58853059472333" lon="11.180669308725417"><ele>857.0</ele><time>2026-04-26T08:04:19.002Z</time></trkpt><trkpt lat="45.58859300302044" lon="11.180691844705466"><ele>857.0</ele><time>2026-04-26T08:04:22.002Z</time></trkpt><trkpt lat="45.58866664233419" lon="11.180684156777277"><ele>857.0</ele><time>2026-04-26T08:04:26.002Z</time></trkpt><trkpt lat="45.588728321064195" lon="11.180658793232979"><ele>857.0</ele><time>2026-04-26T08:04:29.002Z</time></trkpt><trkpt lat="45.5888048320036" lon="11.180609849242174"><ele>858.7142857142857</ele><time>2026-04-26T08:04:33.001Z</time></trkpt><trkpt lat="45.58885960347775" lon="11.180561158956788"><ele>860.4285714285713</ele><time>2026-04-26T08:04:36.001Z</time></trkpt><trkpt lat="45.58892137866969" lon="11.180519050880404"><ele>862.1428571428571</ele><time>2026-04-26T08:04:39.001Z</time></trkpt><trkpt lat="45.588989284900364" lon="11.180470891854576"><ele>863.8571428571429</ele><time>2026-04-26T08:04:42.001Z</time></trkpt><trkpt lat="45.58905834057856" lon="11.180456239029455"><ele>865.5714285714286</ele><time>2026-04-26T08:04:45.001Z</time></trkpt><trkpt lat="45.5891295515996" lon="11.180448896930645"><ele>867.2857142857143</ele><time>2026-04-26T08:04:49.001Z</time></trkpt><trkpt lat="45.58917143077652" lon="11.18036588727202"><ele>869.0</ele><time>2026-04-26T08:04:52.003Z</time></trkpt><trkpt lat="45.58917642450553" lon="11.180274883519786"><ele>869.0000000000001</ele><time>2026-04-26T08:04:54.004Z</time></trkpt><trkpt lat="45.58920303488353" lon="11.18015484284316"><ele>869.0</ele><time>2026-04-26T08:04:57.003Z</time></trkpt><trkpt lat="45.589242490063896" lon="11.180056831359767"><ele>869.0</ele><time>2026-04-26T08:05:00.003Z</time></trkpt><trkpt lat="45.589277412793116" lon="11.179960395974037"><ele>869.0</ele><time>2026-04-26T08:05:03.003Z</time></trkpt><trkpt lat="45.58931196079648" lon="11.17985126557191"><ele>869.0000000000001</ele><time>2026-04-26T08:05:06.003Z</time></trkpt><trkpt lat="45.589342478856885" lon="11.179750578373843"><ele>869.0</ele><time>2026-04-26T08:05:09.003Z</time></trkpt><trkpt lat="45.589390752961236" lon="11.1796580309882"><ele>869.1666666666667</ele><time>2026-04-26T08:05:12.003Z</time></trkpt><trkpt lat="45.58944328088602" lon="11.179567796455688"><ele>869.3333333333334</ele><time>2026-04-26T08:05:15.003Z</time></trkpt><trkpt lat="45.5895311338199" lon="11.179548489508292"><ele>869.5</ele><time>2026-04-26T08:05:18.003Z</time></trkpt><trkpt lat="45.589618453477875" lon="11.179553720849345"><ele>869.6666666666667</ele><time>2026-04-26T08:05:21.003Z</time></trkpt><trkpt lat="45.58969834040312" lon="11.179525917167693"><ele>869.8333333333334</ele><time>2026-04-26T08:05:24.003Z</time></trkpt><trkpt lat="45.58976906221204" lon="11.179501511197225"><ele>870.0</ele><time>2026-04-26T08:05:27.003Z</time></trkpt><trkpt lat="45.5898447141976" lon="11.17944679292341"><ele>870.0000000000001</ele><time>2026-04-26T08:05:30.003Z</time></trkpt><trkpt lat="45.58990504302966" lon="11.17940884807424"><ele>870.0</ele><time>2026-04-26T08:05:32.003Z</time></trkpt><trkpt lat="45.589959074328874" lon="11.179356932197816"><ele>870.0</ele><time>2026-04-26T08:05:34.003Z</time></trkpt><trkpt lat="45.590017364225915" lon="11.179297630636498"><ele>870.0</ele><time>2026-04-26T08:05:36.003Z</time></trkpt><trkpt lat="45.59007098379245" lon="11.179239158825858"><ele>870.0</ele><time>2026-04-26T08:05:38.003Z</time></trkpt><trkpt lat="45.590123313433324" lon="11.179180165428813"><ele>870.0000000000001</ele><time>2026-04-26T08:05:40.003Z</time></trkpt><trkpt lat="45.59018741819587" lon="11.17908467985588"><ele>870.0</ele><time>2026-04-26T08:05:43.003Z</time></trkpt><trkpt lat="45.590233756542474" lon="11.179022701995509"><ele>868.7142857142858</ele><time>2026-04-26T08:05:45.003Z</time></trkpt><trkpt lat="45.59028309846376" lon="11.178958648999478"><ele>867.4285714285714</ele><time>2026-04-26T08:05:47.002Z</time></trkpt><trkpt lat="45.59033791588698" lon="11.178895697965466"><ele>866.1428571428571</ele><time>2026-04-26T08:05:49.002Z</time></trkpt><trkpt lat="45.59038862154075" lon="11.17883670323234"><ele>864.8571428571429</ele><time>2026-04-26T08:05:51.002Z</time></trkpt><trkpt lat="45.59043375258965" lon="11.178766296745993"><ele>863.5714285714286</ele><time>2026-04-26T08:05:53.002Z</time></trkpt><trkpt lat="45.59049644318522" lon="11.178670026738077"><ele>862.2857142857143</ele><time>2026-04-26T08:05:56.002Z</time></trkpt><trkpt lat="45.59053963451665" lon="11.178597883143066"><ele>861.0</ele><time>2026-04-26T08:05:58.002Z</time></trkpt><trkpt lat="45.590594756290955" lon="11.178523138713835"><ele>861.0</ele><time>2026-04-26T08:06:01.002Z</time></trkpt><trkpt lat="45.59066380633556" lon="11.178458445976794"><ele>861.0</ele><time>2026-04-26T08:06:06.002Z</time></trkpt><trkpt lat="45.5907156661806" lon="11.178531880383362"><ele>861.0</ele><time>2026-04-26T08:06:13.002Z</time></trkpt><trkpt lat="45.590705408766745" lon="11.17864472471331"><ele>861.0</ele><time>2026-04-26T08:06:17.002Z</time></trkpt><trkpt lat="45.59069061090967" lon="11.17875011638811"><ele>861.0</ele><time>2026-04-26T08:06:21.002Z</time></trkpt><trkpt lat="45.59068261773767" lon="11.178839986010733"><ele>861.0</ele><time>2026-04-26T08:06:24.002Z</time></trkpt><trkpt lat="45.59066768695784" lon="11.178933590818149"><ele>861.0</ele><time>2026-04-26T08:06:27.002Z</time></trkpt><trkpt lat="45.59066923331216" lon="11.17903403327572"><ele>860.1666666666666</ele><time>2026-04-26T08:06:30.002Z</time></trkpt><trkpt lat="45.59068892592517" lon="11.179130239916313"><ele>859.3333333333333</ele><time>2026-04-26T08:06:33.002Z</time></trkpt><trkpt lat="45.59072276910065" lon="11.17922310885168"><ele>858.5</ele><time>2026-04-26T08:06:36.001Z</time></trkpt><trkpt lat="45.59071415045527" lon="11.179340282717881"><ele>857.6666666666666</ele><time>2026-04-26T08:06:39.001Z</time></trkpt><trkpt lat="45.590697598054625" lon="11.179440406188151"><ele>856.8333333333333</ele><time>2026-04-26T08:06:42.001Z</time></trkpt><trkpt lat="45.59066484585127" lon="11.179554381552862"><ele>856.0</ele><time>2026-04-26T08:06:45.001Z</time></trkpt><trkpt lat="45.590637266228455" lon="11.179639363608063"><ele>856.0000000000001</ele><time>2026-04-26T08:06:48.001Z</time></trkpt><trkpt lat="45.590610052595004" lon="11.179724015364274"><ele>856.0</ele><time>2026-04-26T08:06:51.001Z</time></trkpt><trkpt lat="45.59059220691821" lon="11.179819494644105"><ele>856.0</ele><time>2026-04-26T08:06:54.001Z</time></trkpt><trkpt lat="45.59061963415885" lon="11.179932214226072"><ele>856.0</ele><time>2026-04-26T08:06:57.003Z</time></trkpt><trkpt lat="45.5906076436812" lon="11.18003478914288"><ele>856.0</ele><time>2026-04-26T08:07:00.003Z</time></trkpt><trkpt lat="45.590607618435484" lon="11.18014207980146"><ele>856.0000000000001</ele><time>2026-04-26T08:07:04.003Z</time></trkpt><trkpt lat="45.59056278601237" lon="11.180234623971646"><ele>856.0</ele><time>2026-04-26T08:07:08.004Z</time></trkpt><trkpt lat="45.590537803512646" lon="11.180317615470004"><ele>853.9999999999999</ele><time>2026-04-26T08:07:11.003Z</time></trkpt><trkpt lat="45.59052239655086" lon="11.180408867039406"><ele>852.0</ele><time>2026-04-26T08:07:14.003Z</time></trkpt><trkpt lat="45.59051254490781" lon="11.180513360635175"><ele>850.0</ele><time>2026-04-26T08:07:17.003Z</time></trkpt><trkpt lat="45.590490554170145" lon="11.180608628203416"><ele>848.0</ele><time>2026-04-26T08:07:20.003Z</time></trkpt><trkpt lat="45.590447177152924" lon="11.180716772129735"><ele>845.9999999999999</ele><time>2026-04-26T08:07:23.003Z</time></trkpt><trkpt lat="45.590427122025105" lon="11.180832450380525"><ele>844.0</ele><time>2026-04-26T08:07:26.003Z</time></trkpt><trkpt lat="45.590400976415225" lon="11.180940323961444"><ele>841.9999999999999</ele><time>2026-04-26T08:07:29.003Z</time></trkpt><trkpt lat="45.590360808953626" lon="11.181042230128337"><ele>840.0</ele><time>2026-04-26T08:07:32.002Z</time></trkpt><trkpt lat="45.59036094303301" lon="11.181171300338795"><ele>838.0</ele><time>2026-04-26T08:07:35.002Z</time></trkpt><trkpt lat="45.59036612309215" lon="11.181302538832654"><ele>836.0</ele><time>2026-04-26T08:07:38.002Z</time></trkpt><trkpt lat="45.59037391593529" lon="11.181395293162412"><ele>833.9999999999999</ele><time>2026-04-26T08:07:40.002Z</time></trkpt><trkpt lat="45.59040430740391" lon="11.181481773303881"><ele>832.0</ele><time>2026-04-26T08:07:42.002Z</time></trkpt><trkpt lat="45.59046743969632" lon="11.181552475311605"><ele>832.0</ele><time>2026-04-26T08:07:45.002Z</time></trkpt><trkpt lat="45.590541763485795" lon="11.181605524356465"><ele>832.0</ele><time>2026-04-26T08:07:49.002Z</time></trkpt><trkpt lat="45.590620201446875" lon="11.18159915464445"><ele>832.0</ele><time>2026-04-26T08:07:52.002Z</time></trkpt><trkpt lat="45.59068237415429" lon="11.181557185131444"><ele>832.0</ele><time>2026-04-26T08:07:55.002Z</time></trkpt><trkpt lat="45.59076263347611" lon="11.181540119662891"><ele>832.0</ele><time>2026-04-26T08:07:58.002Z</time></trkpt><trkpt lat="45.5909106069252" lon="11.181548376376519"><ele>831.9999999999999</ele><time>2026-04-26T08:08:04.002Z</time></trkpt><trkpt lat="45.59097370426811" lon="11.181572685197423"><ele>832.0</ele><time>2026-04-26T08:08:07.002Z</time></trkpt><trkpt lat="45.591049277778616" lon="11.181565208855632"><ele>832.0</ele><time>2026-04-26T08:08:12.002Z</time></trkpt><trkpt lat="45.59112636988042" lon="11.181505278731915"><ele>832.0</ele><time>2026-04-26T08:08:16.002Z</time></trkpt><trkpt lat="45.59119035313095" lon="11.181411223677323"><ele>831.9999999999999</ele><time>2026-04-26T08:08:19.001Z</time></trkpt><trkpt lat="45.59125097139794" lon="11.18138221355767"><ele>832.0</ele><time>2026-04-26T08:08:22.001Z</time></trkpt><trkpt lat="45.59131471914009" lon="11.181334636219983"><ele>831.8333333333333</ele><time>2026-04-26T08:08:26.001Z</time></trkpt><trkpt lat="45.59123627551355" lon="11.181318469470336"><ele>831.6666666666666</ele><time>2026-04-26T08:08:38.001Z</time></trkpt><trkpt lat="45.59116514507153" lon="11.181288108122958"><ele>831.5</ele><time>2026-04-26T08:08:41.001Z</time></trkpt><trkpt lat="45.59108125965618" lon="11.18128553648001"><ele>831.3333333333333</ele><time>2026-04-26T08:08:44.001Z</time></trkpt><trkpt lat="45.59100529517799" lon="11.18127943756417"><ele>831.1666666666666</ele><time>2026-04-26T08:08:47.001Z</time></trkpt><trkpt lat="45.59094307355798" lon="11.181240842418354"><ele>831.0</ele><time>2026-04-26T08:08:50.001Z</time></trkpt><trkpt lat="45.5909019846703" lon="11.181151151250276"><ele>831.0</ele><time>2026-04-26T08:08:53.001Z</time></trkpt><trkpt lat="45.59091867518432" lon="11.181040564154292"><ele>831.0</ele><time>2026-04-26T08:08:57.001Z</time></trkpt><trkpt lat="45.59095177868687" lon="11.180940084354896"><ele>831.0</ele><time>2026-04-26T08:09:01.001Z</time></trkpt><trkpt lat="45.59099535707569" lon="11.180850900935976"><ele>831.0</ele><time>2026-04-26T08:09:05.004Z</time></trkpt><trkpt lat="45.59105159795938" lon="11.18078654999982"><ele>831.0</ele><time>2026-04-26T08:09:08.003Z</time></trkpt><trkpt lat="45.59108628659606" lon="11.18068182144143"><ele>831.0</ele><time>2026-04-26T08:09:11.003Z</time></trkpt><trkpt lat="45.591126285323504" lon="11.180572707733376"><ele>825.6666666666666</ele><time>2026-04-26T08:09:14.003Z</time></trkpt><trkpt lat="45.59117890350839" lon="11.180475175459602"><ele>820.3333333333333</ele><time>2026-04-26T08:09:17.003Z</time></trkpt><trkpt lat="45.59120780271852" lon="11.18036349897639"><ele>815.0</ele><time>2026-04-26T08:09:20.003Z</time></trkpt><trkpt lat="45.591257440784474" lon="11.180244208554583"><ele>809.6666666666666</ele><time>2026-04-26T08:09:23.003Z</time></trkpt><trkpt lat="45.59130262760342" lon="11.180147795173161"><ele>804.3333333333333</ele><time>2026-04-26T08:09:25.003Z</time></trkpt><trkpt lat="45.59134206768953" lon="11.180050169881364"><ele>799.0</ele><time>2026-04-26T08:09:28.003Z</time></trkpt><trkpt lat="45.59140196496965" lon="11.179980835376428"><ele>798.9999999999999</ele><time>2026-04-26T08:09:31.003Z</time></trkpt><trkpt lat="45.591454119224" lon="11.179919451860647"><ele>799.0</ele><time>2026-04-26T08:09:34.002Z</time></trkpt><trkpt lat="45.59151804258898" lon="11.179860365826068"><ele>799.0</ele><time>2026-04-26T08:09:37.002Z</time></trkpt><trkpt lat="45.591596988110304" lon="11.17979357267138"><ele>799.0</ele><time>2026-04-26T08:09:40.002Z</time></trkpt><trkpt lat="45.59165686652324" lon="11.17972188288476"><ele>798.9999999999999</ele><time>2026-04-26T08:09:43.002Z</time></trkpt><trkpt lat="45.59172185149963" lon="11.179651115769376"><ele>799.0</ele><time>2026-04-26T08:09:46.002Z</time></trkpt><trkpt lat="45.59180085991266" lon="11.179585555439283"><ele>796.9999999999999</ele><time>2026-04-26T08:09:49.002Z</time></trkpt><trkpt lat="45.591872497299974" lon="11.179543065946667"><ele>795.0</ele><time>2026-04-26T08:09:52.002Z</time></trkpt><trkpt lat="45.591938596581166" lon="11.179499730838913"><ele>793.0</ele><time>2026-04-26T08:09:55.002Z</time></trkpt><trkpt lat="45.592038822419" lon="11.17946914557311"><ele>791.0</ele><time>2026-04-26T08:09:59.002Z</time></trkpt><trkpt lat="45.59210455550151" lon="11.179412531798194"><ele>788.9999999999999</ele><time>2026-04-26T08:10:02.002Z</time></trkpt><trkpt lat="45.5921764942212" lon="11.179369977473419"><ele>787.0</ele><time>2026-04-26T08:10:05.002Z</time></trkpt><trkpt lat="45.592255529790904" lon="11.179339869747366"><ele>786.9999999999999</ele><time>2026-04-26T08:10:08.002Z</time></trkpt><trkpt lat="45.59233230691186" lon="11.179289133386586"><ele>787.0</ele><time>2026-04-26T08:10:11.002Z</time></trkpt><trkpt lat="45.59240136642738" lon="11.179212088568866"><ele>787.0</ele><time>2026-04-26T08:10:14.002Z</time></trkpt><trkpt lat="45.592482376178474" lon="11.179157802256999"><ele>787.0</ele><time>2026-04-26T08:10:17.002Z</time></trkpt><trkpt lat="45.592544981132185" lon="11.1791475211836"><ele>786.9999999999999</ele><time>2026-04-26T08:10:19.002Z</time></trkpt><trkpt lat="45.59262388876129" lon="11.179117779199501"><ele>787.0</ele><time>2026-04-26T08:10:22.001Z</time></trkpt><trkpt lat="45.59268757991074" lon="11.179066427661176"><ele>786.9999999999999</ele><time>2026-04-26T08:10:25.001Z</time></trkpt><trkpt lat="45.59276301663196" lon="11.179019693345865"><ele>787.0</ele><time>2026-04-26T08:10:28.001Z</time></trkpt><trkpt lat="45.592821098551084" lon="11.178923440211884"><ele>787.0</ele><time>2026-04-26T08:10:31.001Z</time></trkpt><trkpt lat="45.59288306539228" lon="11.178848427442508"><ele>787.0</ele><time>2026-04-26T08:10:34.001Z</time></trkpt><trkpt lat="45.59294657123572" lon="11.178762148876018"><ele>786.9999999999999</ele><time>2026-04-26T08:10:37.001Z</time></trkpt><trkpt lat="45.59301190571562" lon="11.17869784681078"><ele>787.0</ele><time>2026-04-26T08:10:40.001Z</time></trkpt><trkpt lat="45.593080689898606" lon="11.178640544928879"><ele>787.3333333333333</ele><time>2026-04-26T08:10:43.001Z</time></trkpt><trkpt lat="45.59316412699192" lon="11.178609243525848"><ele>787.6666666666666</ele><time>2026-04-26T08:10:46.001Z</time></trkpt><trkpt lat="45.59323151931606" lon="11.178557868783747"><ele>788.0</ele><time>2026-04-26T08:10:49.001Z</time></trkpt><trkpt lat="45.593294639286675" lon="11.178500979689261"><ele>788.3333333333333</ele><time>2026-04-26T08:10:52.001Z</time></trkpt><trkpt lat="45.59337376171083" lon="11.178462592915865"><ele>788.6666666666666</ele><time>2026-04-26T08:10:55.001Z</time></trkpt><trkpt lat="45.593487269583704" lon="11.17843000531204"><ele>789.0</ele><time>2026-04-26T08:10:59.001Z</time></trkpt><trkpt lat="45.59356639914039" lon="11.178397609511396"><ele>789.0</ele><time>2026-04-26T08:11:02.001Z</time></trkpt><trkpt lat="45.59362702232069" lon="11.178325867579495"><ele>789.0</ele><time>2026-04-26T08:11:06.001Z</time></trkpt><trkpt lat="45.59367331249593" lon="11.178233026259221"><ele>789.0</ele><time>2026-04-26T08:11:09.004Z</time></trkpt><trkpt lat="45.59372728993378" lon="11.178134039204828"><ele>789.0</ele><time>2026-04-26T08:11:12.003Z</time></trkpt><trkpt lat="45.59376997320918" lon="11.178043920436709"><ele>789.0</ele><time>2026-04-26T08:11:15.003Z</time></trkpt><trkpt lat="45.59383630402544" lon="11.17797849767622"><ele>789.0</ele><time>2026-04-26T08:11:18.003Z</time></trkpt><trkpt lat="45.593887356195175" lon="11.177905697637991"><ele>789.0</ele><time>2026-04-26T08:11:21.003Z</time></trkpt><trkpt lat="45.593934522801916" lon="11.177832987523816"><ele>789.0</ele><time>2026-04-26T08:11:24.003Z</time></trkpt><trkpt lat="45.593997405338165" lon="11.177787556250976"><ele>789.0</ele><time>2026-04-26T08:11:27.003Z</time></trkpt><trkpt lat="45.594074042851645" lon="11.177782013616063"><ele>789.0</ele><time>2026-04-26T08:11:30.003Z</time></trkpt><trkpt lat="45.59414659918437" lon="11.177769497975602"><ele>789.0</ele><time>2026-04-26T08:11:33.003Z</time></trkpt><trkpt lat="45.59426747352033" lon="11.177781527741876"><ele>789.0</ele><time>2026-04-26T08:11:38.003Z</time></trkpt><trkpt lat="45.594348463842486" lon="11.177785882608037"><ele>788.9999999999999</ele><time>2026-04-26T08:11:41.003Z</time></trkpt><trkpt lat="45.594417655257686" lon="11.177793806254043"><ele>789.0</ele><time>2026-04-26T08:11:44.003Z</time></trkpt><trkpt lat="45.59448851324787" lon="11.177820225581533"><ele>789.0</ele><time>2026-04-26T08:11:47.003Z</time></trkpt><trkpt lat="45.59455847641114" lon="11.177858363394828"><ele>789.0</ele><time>2026-04-26T08:11:50.003Z</time></trkpt><trkpt lat="45.59462488236434" lon="11.177900477716133"><ele>789.0</ele><time>2026-04-26T08:11:53.003Z</time></trkpt><trkpt lat="45.59469460089998" lon="11.177947998877292"><ele>788.9999999999999</ele><time>2026-04-26T08:11:56.003Z</time></trkpt><trkpt lat="45.594766639929574" lon="11.177992030814655"><ele>789.0</ele><time>2026-04-26T08:11:59.002Z</time></trkpt><trkpt lat="45.59483669497571" lon="11.178053324229435"><ele>788.8333333333334</ele><time>2026-04-26T08:12:02.002Z</time></trkpt><trkpt lat="45.594893071872384" lon="11.178125533575054"><ele>788.6666666666667</ele><time>2026-04-26T08:12:05.002Z</time></trkpt><trkpt lat="45.59495498092239" lon="11.178189274890409"><ele>788.5</ele><time>2026-04-26T08:12:08.002Z</time></trkpt><trkpt lat="45.59501821182285" lon="11.17823725109453"><ele>788.3333333333334</ele><time>2026-04-26T08:12:11.002Z</time></trkpt><trkpt lat="45.59508664110085" lon="11.178263878957717"><ele>788.1666666666667</ele><time>2026-04-26T08:12:15.002Z</time></trkpt><trkpt lat="45.595184372410884" lon="11.178292128971327"><ele>788.0</ele><time>2026-04-26T08:12:19.002Z</time></trkpt><trkpt lat="45.59526783227126" lon="11.178324327479325"><ele>779.4</ele><time>2026-04-26T08:12:23.002Z</time></trkpt><trkpt lat="45.5953496432642" lon="11.178333038513973"><ele>770.8</ele><time>2026-04-26T08:12:27.002Z</time></trkpt><trkpt lat="45.59553541464451" lon="11.178328336580774"><ele>762.2</ele><time>2026-04-26T08:12:34.002Z</time></trkpt><trkpt lat="45.595612626142696" lon="11.178311812499347"><ele>753.6</ele><time>2026-04-26T08:12:38.002Z</time></trkpt><trkpt lat="45.595689821313655" lon="11.178239786286523"><ele>745.0</ele><time>2026-04-26T08:12:42.002Z</time></trkpt><trkpt lat="45.59574700240593" lon="11.178200281309229"><ele>745.0</ele><time>2026-04-26T08:12:44.002Z</time></trkpt><trkpt lat="45.59579763588331" lon="11.17810982666651"><ele>745.0</ele><time>2026-04-26T08:12:47.001Z</time></trkpt><trkpt lat="45.595823016087344" lon="11.178015705503451"><ele>745.0</ele><time>2026-04-26T08:12:50.001Z</time></trkpt><trkpt lat="45.595860211812216" lon="11.177942900303472"><ele>745.0</ele><time>2026-04-26T08:12:55.001Z</time></trkpt><trkpt lat="45.595936458303996" lon="11.177978257000088"><ele>745.0</ele><time>2026-04-26T08:13:09.001Z</time></trkpt><trkpt lat="45.59598613444057" lon="11.178086340468498"><ele>745.0</ele><time>2026-04-26T08:13:12.001Z</time></trkpt><trkpt lat="45.59600169220215" lon="11.178203437364283"><ele>745.0</ele><time>2026-04-26T08:13:16.004Z</time></trkpt><trkpt lat="45.59598855366444" lon="11.178341296900077"><ele>745.0</ele><time>2026-04-26T08:13:20.004Z</time></trkpt><trkpt lat="45.59595140076386" lon="11.178449470149603"><ele>745.0</ele><time>2026-04-26T08:13:23.003Z</time></trkpt><trkpt lat="45.59592083219267" lon="11.178546090939298"><ele>745.0</ele><time>2026-04-26T08:13:26.004Z</time></trkpt><trkpt lat="45.595883728139334" lon="11.178632250565238"><ele>745.0</ele><time>2026-04-26T08:13:30.004Z</time></trkpt><trkpt lat="45.59582754538082" lon="11.178728702642537"><ele>745.0</ele><time>2026-04-26T08:13:35.004Z</time></trkpt><trkpt lat="45.59578545435471" lon="11.17880449713123"><ele>745.0</ele><time>2026-04-26T08:13:40.003Z</time></trkpt><trkpt lat="45.5957223299391" lon="11.17887625017161"><ele>745.0</ele><time>2026-04-26T08:13:44.003Z</time></trkpt><trkpt lat="45.59566441434869" lon="11.17891354434299"><ele>745.0</ele><time>2026-04-26T08:13:47.003Z</time></trkpt><trkpt lat="45.59560189311236" lon="11.178943473918224"><ele>745.0</ele><time>2026-04-26T08:13:51.003Z</time></trkpt><trkpt lat="45.59554827120309" lon="11.179003572971386"><ele>745.0</ele><time>2026-04-26T08:13:55.003Z</time></trkpt><trkpt lat="45.59546291057874" lon="11.179002252008564"><ele>745.0</ele><time>2026-04-26T08:13:59.003Z</time></trkpt><trkpt lat="45.59539496806922" lon="11.179022159266122"><ele>745.0</ele><time>2026-04-26T08:14:02.003Z</time></trkpt><trkpt lat="45.59531639878092" lon="11.17902593313948"><ele>746.5714285714286</ele><time>2026-04-26T08:14:05.003Z</time></trkpt><trkpt lat="45.59522294324477" lon="11.17901130405147"><ele>748.1428571428571</ele><time>2026-04-26T08:14:08.003Z</time></trkpt><trkpt lat="45.59515586259189" lon="11.179038286914167"><ele>749.7142857142858</ele><time>2026-04-26T08:14:10.003Z</time></trkpt><trkpt lat="45.59509078307867" lon="11.179056656361913"><ele>751.2857142857142</ele><time>2026-04-26T08:14:12.003Z</time></trkpt><trkpt lat="45.595033665589725" lon="11.179116687710343"><ele>752.8571428571429</ele><time>2026-04-26T08:14:15.003Z</time></trkpt><trkpt lat="45.5949871039401" lon="11.1791815210564"><ele>754.4285714285714</ele><time>2026-04-26T08:14:18.003Z</time></trkpt><trkpt lat="45.59492963009792" lon="11.179233076945412"><ele>756.0</ele><time>2026-04-26T08:14:21.003Z</time></trkpt><trkpt lat="45.59485031808544" lon="11.179281923400374"><ele>753.3333333333334</ele><time>2026-04-26T08:14:24.003Z</time></trkpt><trkpt lat="45.594769411467304" lon="11.179298102581498"><ele>750.6666666666666</ele><time>2026-04-26T08:14:27.002Z</time></trkpt><trkpt lat="45.59470401286047" lon="11.179287993892908"><ele>748.0</ele><time>2026-04-26T08:14:29.002Z</time></trkpt><trkpt lat="45.59461647720953" lon="11.179296253160079"><ele>745.3333333333333</ele><time>2026-04-26T08:14:32.002Z</time></trkpt><trkpt lat="45.59452696667324" lon="11.179320596472829"><ele>742.6666666666666</ele><time>2026-04-26T08:14:35.002Z</time></trkpt><trkpt lat="45.59446016647552" lon="11.179335230945881"><ele>740.0</ele><time>2026-04-26T08:14:37.002Z</time></trkpt><trkpt lat="45.59437853617889" lon="11.179365723149123"><ele>740.0</ele><time>2026-04-26T08:14:40.002Z</time></trkpt><trkpt lat="45.59430897253814" lon="11.179385964804437"><ele>740.0</ele><time>2026-04-26T08:14:43.002Z</time></trkpt><trkpt lat="45.594243146474376" lon="11.179416336523419"><ele>740.0</ele><time>2026-04-26T08:14:46.002Z</time></trkpt><trkpt lat="45.59431227468084" lon="11.179451560002137"><ele>740.0</ele><time>2026-04-26T08:15:00.002Z</time></trkpt><trkpt lat="45.59438132424757" lon="11.179509430647661"><ele>740.0</ele><time>2026-04-26T08:15:03.002Z</time></trkpt><trkpt lat="45.59444342353747" lon="11.17957742315425"><ele>740.0</ele><time>2026-04-26T08:15:06.002Z</time></trkpt><trkpt lat="45.59450884505142" lon="11.1796454013208"><ele>737.0</ele><time>2026-04-26T08:15:09.002Z</time></trkpt><trkpt lat="45.59455875341447" lon="11.179701453651555"><ele>734.0</ele><time>2026-04-26T08:15:11.002Z</time></trkpt><trkpt lat="45.59462047716383" lon="11.179774062911632"><ele>731.0</ele><time>2026-04-26T08:15:14.002Z</time></trkpt><trkpt lat="45.594675224438866" lon="11.179836276686155"><ele>728.0</ele><time>2026-04-26T08:15:17.001Z</time></trkpt><trkpt lat="45.59469325435624" lon="11.179952727970536"><ele>725.0</ele><time>2026-04-26T08:15:20.004Z</time></trkpt><trkpt lat="45.594710905554216" lon="11.1800416367532"><ele>722.0</ele><time>2026-04-26T08:15:23.004Z</time></trkpt><trkpt lat="45.5947694268273" lon="11.180148568412598"><ele>718.3333333333333</ele><time>2026-04-26T08:15:26.004Z</time></trkpt><trkpt lat="45.594839257013675" lon="11.180179556736126"><ele>714.6666666666666</ele><time>2026-04-26T08:15:29.004Z</time></trkpt><trkpt lat="45.59489269719187" lon="11.180235938797207"><ele>711.0</ele><time>2026-04-26T08:15:31.004Z</time></trkpt><trkpt lat="45.59496286480839" lon="11.180300875663058"><ele>707.3333333333334</ele><time>2026-04-26T08:15:34.005Z</time></trkpt><trkpt lat="45.595028479626876" lon="11.180370699584646"><ele>703.6666666666667</ele><time>2026-04-26T08:15:37.004Z</time></trkpt><trkpt lat="45.59511338386963" lon="11.180410033901898"><ele>700.0</ele><time>2026-04-26T08:15:40.004Z</time></trkpt><trkpt lat="45.59519218734294" lon="11.180436310585382"><ele>700.0</ele><time>2026-04-26T08:15:43.004Z</time></trkpt><trkpt lat="45.5952463972368" lon="11.180483047276939"><ele>700.0</ele><time>2026-04-26T08:15:45.004Z</time></trkpt><trkpt lat="45.5953197419589" lon="11.180474624050799"><ele>700.0</ele><time>2026-04-26T08:15:50.004Z</time></trkpt><trkpt lat="45.59544200809277" lon="11.180454376815474"><ele>700.0</ele><time>2026-04-26T08:15:56.004Z</time></trkpt><trkpt lat="45.59552498049164" lon="11.180427110174254"><ele>700.0</ele><time>2026-04-26T08:15:59.004Z</time></trkpt><trkpt lat="45.59560543784499" lon="11.1803907857338"><ele>700.0</ele><time>2026-04-26T08:16:02.004Z</time></trkpt><trkpt lat="45.59575395839122" lon="11.180391469861746"><ele>697.2857142857143</ele><time>2026-04-26T08:16:07.004Z</time></trkpt><trkpt lat="45.59582068918626" lon="11.18036755401786"><ele>694.5714285714286</ele><time>2026-04-26T08:16:10.004Z</time></trkpt><trkpt lat="45.59579652164347" lon="11.180274924763802"><ele>691.8571428571429</ele><time>2026-04-26T08:16:15.004Z</time></trkpt><trkpt lat="45.595746804054684" lon="11.180185813067627"><ele>689.1428571428571</ele><time>2026-04-26T08:16:19.004Z</time></trkpt><trkpt lat="45.595787524531104" lon="11.180104368562084"><ele>686.4285714285714</ele><time>2026-04-26T08:16:21.004Z</time></trkpt><trkpt lat="45.59585146554443" lon="11.180049135863245"><ele>683.7142857142858</ele><time>2026-04-26T08:16:24.003Z</time></trkpt><trkpt lat="45.595923723935705" lon="11.18003680386348"><ele>681.0</ele><time>2026-04-26T08:16:27.003Z</time></trkpt><trkpt lat="45.5959870377582" lon="11.180055811034618"><ele>681.0000000000001</ele><time>2026-04-26T08:16:47.003Z</time></trkpt><trkpt lat="45.596052099654955" lon="11.180090139911051"><ele>681.0</ele><time>2026-04-26T08:16:50.003Z</time></trkpt><trkpt lat="45.59613969274495" lon="11.180098462236463"><ele>681.0</ele><time>2026-04-26T08:16:53.003Z</time></trkpt><trkpt lat="45.59619473231154" lon="11.180149127861709"><ele>681.0</ele><time>2026-04-26T08:16:55.003Z</time></trkpt><trkpt lat="45.59625780207634" lon="11.18015342971106"><ele>681.0</ele><time>2026-04-26T08:16:57.003Z</time></trkpt><trkpt lat="45.59631997995696" lon="11.180138175823167"><ele>681.0000000000001</ele><time>2026-04-26T08:17:00.003Z</time></trkpt><trkpt lat="45.59640099809115" lon="11.180123723863181"><ele>681.0</ele><time>2026-04-26T08:17:03.003Z</time></trkpt><trkpt lat="45.596481293936485" lon="11.180093692253958"><ele>678.4285714285714</ele><time>2026-04-26T08:17:06.003Z</time></trkpt><trkpt lat="45.59655568133776" lon="11.180095086371427"><ele>675.8571428571429</ele><time>2026-04-26T08:17:09.003Z</time></trkpt><trkpt lat="45.596545987903816" lon="11.180194078217037"><ele>673.2857142857142</ele><time>2026-04-26T08:17:14.002Z</time></trkpt><trkpt lat="45.59655832408491" lon="11.180285518548871"><ele>670.7142857142858</ele><time>2026-04-26T08:17:17.002Z</time></trkpt><trkpt lat="45.596616497331965" lon="11.180359311470738"><ele>668.1428571428571</ele><time>2026-04-26T08:17:20.002Z</time></trkpt><trkpt lat="45.59665722052339" lon="11.180433426142294"><ele>665.5714285714286</ele><time>2026-04-26T08:17:22.002Z</time></trkpt><trkpt lat="45.59670602918871" lon="11.180527840354111"><ele>663.0</ele><time>2026-04-26T08:17:25.005Z</time></trkpt><trkpt lat="45.59670326513974" lon="11.180618315834124"><ele>663.9999999999999</ele><time>2026-04-26T08:17:27.004Z</time></trkpt><trkpt lat="45.59668790785909" lon="11.180722329274"><ele>665.0</ele><time>2026-04-26T08:17:30.004Z</time></trkpt><trkpt lat="45.59667240375873" lon="11.180820499518706"><ele>666.0</ele><time>2026-04-26T08:17:33.004Z</time></trkpt><trkpt lat="45.596650838871646" lon="11.18092081476481"><ele>667.0</ele><time>2026-04-26T08:17:36.005Z</time></trkpt><trkpt lat="45.59665456983119" lon="11.181021022687299"><ele>668.0</ele><time>2026-04-26T08:17:42.004Z</time></trkpt><trkpt lat="45.596636351447664" lon="11.181135509321319"><ele>668.9999999999999</ele><time>2026-04-26T08:17:49.004Z</time></trkpt><trkpt lat="45.596622761349174" lon="11.181223700533653"><ele>670.0</ele><time>2026-04-26T08:17:52.004Z</time></trkpt><trkpt lat="45.59660476015705" lon="11.181323407035073"><ele>670.0</ele><time>2026-04-26T08:18:00.004Z</time></trkpt><trkpt lat="45.596606062056814" lon="11.181443513415935"><ele>670.0</ele><time>2026-04-26T08:18:04.004Z</time></trkpt><trkpt lat="45.596622538897336" lon="11.181564779731994"><ele>670.0</ele><time>2026-04-26T08:18:07.004Z</time></trkpt><trkpt lat="45.596647136721174" lon="11.181670844679228"><ele>670.0</ele><time>2026-04-26T08:18:10.004Z</time></trkpt><trkpt lat="45.59666473090911" lon="11.181786768317107"><ele>670.0</ele><time>2026-04-26T08:18:13.004Z</time></trkpt><trkpt lat="45.59665715301025" lon="11.181917313186455"><ele>670.0</ele><time>2026-04-26T08:18:16.004Z</time></trkpt><trkpt lat="45.596649239529356" lon="11.182042352417456"><ele>672.0</ele><time>2026-04-26T08:18:19.004Z</time></trkpt><trkpt lat="45.59663529182895" lon="11.182168755424277"><ele>674.0</ele><time>2026-04-26T08:18:22.004Z</time></trkpt><trkpt lat="45.596647936164096" lon="11.182290580861935"><ele>676.0</ele><time>2026-04-26T08:18:25.004Z</time></trkpt><trkpt lat="45.596658515219765" lon="11.182420975783158"><ele>678.0</ele><time>2026-04-26T08:18:28.003Z</time></trkpt><trkpt lat="45.59665730201472" lon="11.182543773583426"><ele>680.0</ele><time>2026-04-26T08:18:31.003Z</time></trkpt><trkpt lat="45.596638266213965" lon="11.18266004949073"><ele>682.0</ele><time>2026-04-26T08:18:34.003Z</time></trkpt><trkpt lat="45.5966147510005" lon="11.182760423187768"><ele>682.8333333333334</ele><time>2026-04-26T08:18:37.003Z</time></trkpt><trkpt lat="45.59659618144159" lon="11.182861769203834"><ele>683.6666666666667</ele><time>2026-04-26T08:18:40.003Z</time></trkpt><trkpt lat="45.596566515643815" lon="11.182975016657949"><ele>684.5</ele><time>2026-04-26T08:18:43.003Z</time></trkpt><trkpt lat="45.59652582454632" lon="11.18306780754362"><ele>685.3333333333334</ele><time>2026-04-26T08:18:46.003Z</time></trkpt><trkpt lat="45.596505266215125" lon="11.183168794703489"><ele>686.1666666666666</ele><time>2026-04-26T08:18:50.003Z</time></trkpt><trkpt lat="45.59647712070163" lon="11.183265300501308"><ele>687.0</ele><time>2026-04-26T08:19:11.003Z</time></trkpt><trkpt lat="45.59646199193808" lon="11.183365924420718"><ele>687.4285714285714</ele><time>2026-04-26T08:19:15.002Z</time></trkpt><trkpt lat="45.59641979496727" lon="11.183440280373175"><ele>687.8571428571428</ele><time>2026-04-26T08:19:20.002Z</time></trkpt><trkpt lat="45.596376245100494" lon="11.183524324052614"><ele>688.2857142857142</ele><time>2026-04-26T08:19:24.002Z</time></trkpt><trkpt lat="45.59636661833766" lon="11.183624626238393"><ele>688.7142857142858</ele><time>2026-04-26T08:19:28.002Z</time></trkpt><trkpt lat="45.596338685525524" lon="11.183715705194285"><ele>689.1428571428571</ele><time>2026-04-26T08:19:31.005Z</time></trkpt><trkpt lat="45.596321983193114" lon="11.183817569136364"><ele>689.5714285714286</ele><time>2026-04-26T08:19:34.005Z</time></trkpt><trkpt lat="45.596305502938236" lon="11.18390613814138"><ele>690.0</ele><time>2026-04-26T08:19:38.005Z</time></trkpt><trkpt lat="45.596309024983206" lon="11.184022779505767"><ele>691.2857142857143</ele><time>2026-04-26T08:19:41.005Z</time></trkpt><trkpt lat="45.596318875220184" lon="11.184126846526544"><ele>692.5714285714286</ele><time>2026-04-26T08:19:44.005Z</time></trkpt><trkpt lat="45.59631692448477" lon="11.1842350474096"><ele>693.8571428571429</ele><time>2026-04-26T08:19:47.005Z</time></trkpt><trkpt lat="45.59632210458081" lon="11.184337804507473"><ele>695.1428571428571</ele><time>2026-04-26T08:19:49.005Z</time></trkpt><trkpt lat="45.59631792167814" lon="11.184435192483104"><ele>696.4285714285714</ele><time>2026-04-26T08:19:51.005Z</time></trkpt><trkpt lat="45.59632051466012" lon="11.18454158185252"><ele>697.7142857142857</ele><time>2026-04-26T08:19:53.005Z</time></trkpt><trkpt lat="45.5963104407368" lon="11.184642583494934"><ele>699.0</ele><time>2026-04-26T08:19:55.005Z</time></trkpt><trkpt lat="45.59629357753364" lon="11.18475932274324"><ele>700.8333333333334</ele><time>2026-04-26T08:19:58.005Z</time></trkpt><trkpt lat="45.59629496315321" lon="11.184892617796496"><ele>702.6666666666666</ele><time>2026-04-26T08:20:01.005Z</time></trkpt><trkpt lat="45.59629566176054" lon="11.18501123273531"><ele>704.5</ele><time>2026-04-26T08:20:04.005Z</time></trkpt><trkpt lat="45.596322962534956" lon="11.185123192162058"><ele>706.3333333333333</ele><time>2026-04-26T08:20:07.004Z</time></trkpt><trkpt lat="45.596340970255326" lon="11.185236296337616"><ele>708.1666666666666</ele><time>2026-04-26T08:20:10.004Z</time></trkpt><trkpt lat="45.59634740614851" lon="11.185336798403844"><ele>710.0</ele><time>2026-04-26T08:20:13.004Z</time></trkpt><trkpt lat="45.59634948971586" lon="11.185439591382979"><ele>710.0</ele><time>2026-04-26T08:20:17.004Z</time></trkpt><trkpt lat="45.59634027376786" lon="11.185557807755822"><ele>710.0</ele><time>2026-04-26T08:20:21.004Z</time></trkpt><trkpt lat="45.59636424048884" lon="11.185654186623175"><ele>710.0</ele><time>2026-04-26T08:20:26.004Z</time></trkpt><trkpt lat="45.59640329316931" lon="11.185749591599935"><ele>710.0</ele><time>2026-04-26T08:20:31.004Z</time></trkpt><trkpt lat="45.596399365261696" lon="11.185852766173085"><ele>710.0</ele><time>2026-04-26T08:20:38.004Z</time></trkpt><trkpt lat="45.59642981147478" lon="11.185954936962592"><ele>710.0</ele><time>2026-04-26T08:20:45.004Z</time></trkpt><trkpt lat="45.59645395357356" lon="11.18604269950328"><ele>710.0</ele><time>2026-04-26T08:20:50.004Z</time></trkpt><trkpt lat="45.59644191404029" lon="11.18614331448492"><ele>710.1428571428571</ele><time>2026-04-26T08:20:55.003Z</time></trkpt><trkpt lat="45.59641257329064" lon="11.186256472550408"><ele>710.2857142857143</ele><time>2026-04-26T08:20:59.003Z</time></trkpt><trkpt lat="45.596398821240335" lon="11.18635985474112"><ele>710.4285714285714</ele><time>2026-04-26T08:21:01.003Z</time></trkpt><trkpt lat="45.59640828029191" lon="11.186451113603562"><ele>710.5714285714286</ele><time>2026-04-26T08:21:03.003Z</time></trkpt><trkpt lat="45.59642971568259" lon="11.186558866620032"><ele>710.7142857142857</ele><time>2026-04-26T08:21:06.003Z</time></trkpt><trkpt lat="45.596457573663486" lon="11.186657208456538"><ele>710.8571428571429</ele><time>2026-04-26T08:21:09.003Z</time></trkpt><trkpt lat="45.596455492317006" lon="11.186747812733309"><ele>711.0</ele><time>2026-04-26T08:21:12.003Z</time></trkpt><trkpt lat="45.59646848502385" lon="11.18684365887966"><ele>711.6666666666666</ele><time>2026-04-26T08:21:15.003Z</time></trkpt><trkpt lat="45.59645400094597" lon="11.18693906303975"><ele>712.3333333333334</ele><time>2026-04-26T08:21:19.003Z</time></trkpt><trkpt lat="45.596406009820484" lon="11.18700026700612"><ele>713.0</ele><time>2026-04-26T08:21:24.003Z</time></trkpt><trkpt lat="45.59636979774391" lon="11.187090254154336"><ele>713.6666666666667</ele><time>2026-04-26T08:21:29.003Z</time></trkpt><trkpt lat="45.59635756591403" lon="11.18718048486697"><ele>714.3333333333334</ele><time>2026-04-26T08:21:38.005Z</time></trkpt><trkpt lat="45.59645507159242" lon="11.187231108553824"><ele>715.0</ele><time>2026-04-26T08:21:53.005Z</time></trkpt><trkpt lat="45.59651353519212" lon="11.187123776359675"><ele>715.0</ele><time>2026-04-26T08:22:02.004Z</time></trkpt><trkpt lat="45.59656304145209" lon="11.187066827434698"><ele>715.0</ele><time>2026-04-26T08:22:07.004Z</time></trkpt><trkpt lat="45.59661246257522" lon="11.187003712051785"><ele>715.0</ele><time>2026-04-26T08:22:11.004Z</time></trkpt><trkpt lat="45.59666216616796" lon="11.18692805710193"><ele>715.0</ele><time>2026-04-26T08:22:16.004Z</time></trkpt><trkpt lat="45.596672392927914" lon="11.18683525269839"><ele>715.0</ele><time>2026-04-26T08:22:21.004Z</time></trkpt><trkpt lat="45.59669288375515" lon="11.18674867779389"><ele>715.0</ele><time>2026-04-26T08:22:26.004Z</time></trkpt><trkpt lat="45.596706130232704" lon="11.186654672720836"><ele>715.0</ele><time>2026-04-26T08:22:30.004Z</time></trkpt><trkpt lat="45.59671097981328" lon="11.186562929103443"><ele>714.4285714285714</ele><time>2026-04-26T08:22:35.004Z</time></trkpt><trkpt lat="45.59673872775908" lon="11.186468950330436"><ele>713.8571428571428</ele><time>2026-04-26T08:22:40.004Z</time></trkpt><trkpt lat="45.59674338254659" lon="11.186366414292975"><ele>713.2857142857142</ele><time>2026-04-26T08:22:45.004Z</time></trkpt><trkpt lat="45.59676730737174" lon="11.186271993229926"><ele>712.7142857142858</ele><time>2026-04-26T08:22:49.004Z</time></trkpt><trkpt lat="45.596789055963704" lon="11.186170062262207"><ele>712.1428571428571</ele><time>2026-04-26T08:22:55.003Z</time></trkpt><trkpt lat="45.59680480443885" lon="11.186063791089307"><ele>711.5714285714286</ele><time>2026-04-26T08:23:01.003Z</time></trkpt><trkpt lat="45.596810034797265" lon="11.185952934830274"><ele>711.0</ele><time>2026-04-26T08:23:06.003Z</time></trkpt><trkpt lat="45.596815821577664" lon="11.185855697639347"><ele>711.0</ele><time>2026-04-26T08:23:09.003Z</time></trkpt><trkpt lat="45.596814428038705" lon="11.185758923408384"><ele>711.0</ele><time>2026-04-26T08:23:12.003Z</time></trkpt><trkpt lat="45.59682660060553" lon="11.185649805350796"><ele>711.0</ele><time>2026-04-26T08:23:16.003Z</time></trkpt><trkpt lat="45.59684472990948" lon="11.185531252791325"><ele>711.0</ele><time>2026-04-26T08:23:20.003Z</time></trkpt><trkpt lat="45.59685987822593" lon="11.185425727070333"><ele>711.0</ele><time>2026-04-26T08:23:24.003Z</time></trkpt><trkpt lat="45.59687727939398" lon="11.185316258823999"><ele>711.0</ele><time>2026-04-26T08:23:28.003Z</time></trkpt><trkpt lat="45.59689697775518" lon="11.185213817553032"><ele>710.8333333333334</ele><time>2026-04-26T08:23:31.003Z</time></trkpt><trkpt lat="45.59691843492877" lon="11.185110217077595"><ele>710.6666666666666</ele><time>2026-04-26T08:23:34.003Z</time></trkpt><trkpt lat="45.59695240494835" lon="11.185005137663952"><ele>710.5</ele><time>2026-04-26T08:23:37.003Z</time></trkpt><trkpt lat="45.59698213891178" lon="11.184905847002614"><ele>710.3333333333333</ele><time>2026-04-26T08:23:41.002Z</time></trkpt><trkpt lat="45.59702480431079" lon="11.184806734696602"><ele>710.1666666666666</ele><time>2026-04-26T08:23:45.006Z</time></trkpt><trkpt lat="45.597045745337894" lon="11.184689849143538"><ele>710.0</ele><time>2026-04-26T08:23:48.005Z</time></trkpt><trkpt lat="45.59707645861924" lon="11.184583664058804"><ele>712.2857142857142</ele><time>2026-04-26T08:23:51.005Z</time></trkpt><trkpt lat="45.59712934351609" lon="11.184505921312592"><ele>714.5714285714286</ele><time>2026-04-26T08:23:54.005Z</time></trkpt><trkpt lat="45.59718713357055" lon="11.18444678423637"><ele>716.8571428571429</ele><time>2026-04-26T08:23:57.005Z</time></trkpt><trkpt lat="45.597245363837445" lon="11.184403003461576"><ele>719.1428571428571</ele><time>2026-04-26T08:24:00.005Z</time></trkpt><trkpt lat="45.597308709123695" lon="11.184353345969154"><ele>721.4285714285714</ele><time>2026-04-26T08:24:04.005Z</time></trkpt><trkpt lat="45.597376214421146" lon="11.184353030593295"><ele>723.7142857142857</ele><time>2026-04-26T08:24:09.005Z</time></trkpt><trkpt lat="45.59743764749338" lon="11.184328366027465"><ele>726.0</ele><time>2026-04-26T08:24:23.005Z</time></trkpt><trkpt lat="45.59750682375223" lon="11.184321680642487"><ele>726.0</ele><time>2026-04-26T08:24:31.005Z</time></trkpt><trkpt lat="45.59757222435424" lon="11.18432652726141"><ele>726.0</ele><time>2026-04-26T08:24:36.005Z</time></trkpt><trkpt lat="45.59762843461207" lon="11.184380578452183"><ele>726.0</ele><time>2026-04-26T08:24:40.004Z</time></trkpt><trkpt lat="45.59769660906111" lon="11.184452177311682"><ele>726.0</ele><time>2026-04-26T08:24:44.004Z</time></trkpt><trkpt lat="45.5977640240122" lon="11.184533260966282"><ele>726.0</ele><time>2026-04-26T08:24:47.004Z</time></trkpt><trkpt lat="45.597840213545965" lon="11.184577602311345"><ele>726.0</ele><time>2026-04-26T08:24:50.004Z</time></trkpt><trkpt lat="45.59790343393751" lon="11.18464579562028"><ele>729.8333333333334</ele><time>2026-04-26T08:24:53.004Z</time></trkpt><trkpt lat="45.597969025947755" lon="11.18469125559741"><ele>733.6666666666666</ele><time>2026-04-26T08:24:56.004Z</time></trkpt><trkpt lat="45.598032535457335" lon="11.184726697592307"><ele>737.5</ele><time>2026-04-26T08:24:59.004Z</time></trkpt><trkpt lat="45.598095874270435" lon="11.184763092643262"><ele>741.3333333333333</ele><time>2026-04-26T08:25:02.004Z</time></trkpt><trkpt lat="45.59817552633745" lon="11.184782710393332"><ele>745.1666666666666</ele><time>2026-04-26T08:25:06.004Z</time></trkpt><trkpt lat="45.59825175606883" lon="11.184804786618564"><ele>749.0</ele><time>2026-04-26T08:25:10.004Z</time></trkpt><trkpt lat="45.59840732811091" lon="11.184724003589356"><ele>749.0</ele><time>2026-04-26T08:25:20.004Z</time></trkpt><trkpt lat="45.59843709504746" lon="11.1846431416328"><ele>749.0</ele><time>2026-04-26T08:25:25.004Z</time></trkpt><trkpt lat="45.59844385977104" lon="11.184547500014972"><ele>749.0</ele><time>2026-04-26T08:25:29.003Z</time></trkpt><trkpt lat="45.598435416191045" lon="11.18445244870793"><ele>749.0</ele><time>2026-04-26T08:25:33.003Z</time></trkpt><trkpt lat="45.59842676201736" lon="11.184359174973862"><ele>749.0</ele><time>2026-04-26T08:25:37.003Z</time></trkpt><trkpt lat="45.59843091390758" lon="11.184256739486154"><ele>749.0</ele><time>2026-04-26T08:25:42.003Z</time></trkpt><trkpt lat="45.59844914490749" lon="11.184137825579075"><ele>749.0</ele><time>2026-04-26T08:25:48.003Z</time></trkpt><trkpt lat="45.598497789585394" lon="11.184036719207693"><ele>748.5714285714286</ele><time>2026-04-26T08:25:52.006Z</time></trkpt><trkpt lat="45.59853221464738" lon="11.183952774270384"><ele>748.1428571428571</ele><time>2026-04-26T08:25:55.006Z</time></trkpt><trkpt lat="45.59857510434016" lon="11.183881331492548"><ele>747.7142857142858</ele><time>2026-04-26T08:25:58.005Z</time></trkpt><trkpt lat="45.598605704062486" lon="11.183795585007012"><ele>747.2857142857142</ele><time>2026-04-26T08:26:02.006Z</time></trkpt><trkpt lat="45.59864439325477" lon="11.183693865745065"><ele>746.8571428571429</ele><time>2026-04-26T08:26:06.006Z</time></trkpt><trkpt lat="45.59865773500732" lon="11.18359943051874"><ele>746.4285714285714</ele><time>2026-04-26T08:26:09.005Z</time></trkpt><trkpt lat="45.598649910246806" lon="11.1835064183551"><ele>746.0</ele><time>2026-04-26T08:26:12.005Z</time></trkpt><trkpt lat="45.59865695984765" lon="11.183412367032554"><ele>746.0</ele><time>2026-04-26T08:26:15.005Z</time></trkpt><trkpt lat="45.59865865103314" lon="11.183319263015063"><ele>746.0</ele><time>2026-04-26T08:26:18.005Z</time></trkpt><trkpt lat="45.59863603296887" lon="11.183207033646916"><ele>746.0</ele><time>2026-04-26T08:26:22.005Z</time></trkpt><trkpt lat="45.598625606717626" lon="11.183115187002802"><ele>746.0</ele><time>2026-04-26T08:26:25.005Z</time></trkpt><trkpt lat="45.59865815839354" lon="11.183036386571844"><ele>746.0</ele><time>2026-04-26T08:26:28.005Z</time></trkpt><trkpt lat="45.59867944380826" lon="11.182942807441101"><ele>746.0</ele><time>2026-04-26T08:26:32.005Z</time></trkpt><trkpt lat="45.59866131761917" lon="11.182842135905508"><ele>746.0</ele><time>2026-04-26T08:26:43.005Z</time></trkpt><trkpt lat="45.59866776793203" lon="11.182743976855955"><ele>746.8333333333333</ele><time>2026-04-26T08:26:47.005Z</time></trkpt><trkpt lat="45.59863971944312" lon="11.182642346466734"><ele>747.6666666666666</ele><time>2026-04-26T08:26:51.005Z</time></trkpt><trkpt lat="45.598600108923954" lon="11.182565683283135"><ele>748.5</ele><time>2026-04-26T08:26:54.005Z</time></trkpt><trkpt lat="45.598611480279594" lon="11.182445617796212"><ele>749.3333333333334</ele><time>2026-04-26T08:26:58.004Z</time></trkpt><trkpt lat="45.59862555469397" lon="11.182319894158768"><ele>750.1666666666667</ele><time>2026-04-26T08:27:42.004Z</time></trkpt><trkpt lat="45.59861814991539" lon="11.182435980526432"><ele>751.0</ele><time>2026-04-26T08:28:55.006Z</time></trkpt><trkpt lat="45.598634542583504" lon="11.182573877981563"><ele>751.0</ele><time>2026-04-26T08:28:58.006Z</time></trkpt><trkpt lat="45.598644786599465" lon="11.182676841371412"><ele>751.0</ele><time>2026-04-26T08:29:01.005Z</time></trkpt><trkpt lat="45.59865921216493" lon="11.182772853231091"><ele>751.0</ele><time>2026-04-26T08:29:04.005Z</time></trkpt><trkpt lat="45.598646868996425" lon="11.182901129913391"><ele>751.0</ele><time>2026-04-26T08:29:09.005Z</time></trkpt><trkpt lat="45.59866426861574" lon="11.183019295967988"><ele>751.0</ele><time>2026-04-26T08:29:12.005Z</time></trkpt><trkpt lat="45.59867828115883" lon="11.18313673277271"><ele>751.0</ele><time>2026-04-26T08:29:15.005Z</time></trkpt><trkpt lat="45.59867111701347" lon="11.183230804443081"><ele>750.2857142857143</ele><time>2026-04-26T08:29:18.005Z</time></trkpt><trkpt lat="45.59868769421869" lon="11.18332008980588"><ele>749.5714285714286</ele><time>2026-04-26T08:29:24.005Z</time></trkpt><trkpt lat="45.598688240455424" lon="11.183445037057405"><ele>748.8571428571429</ele><time>2026-04-26T08:29:27.005Z</time></trkpt><trkpt lat="45.598674445781995" lon="11.18354977721999"><ele>748.1428571428571</ele><time>2026-04-26T08:29:30.005Z</time></trkpt><trkpt lat="45.59865493594262" lon="11.18364746774903"><ele>747.4285714285714</ele><time>2026-04-26T08:29:33.005Z</time></trkpt><trkpt lat="45.59860923089612" lon="11.183721157679779"><ele>746.7142857142858</ele><time>2026-04-26T08:29:37.005Z</time></trkpt><trkpt lat="45.59858841589152" lon="11.18381103078092"><ele>746.0</ele><time>2026-04-26T08:29:40.005Z</time></trkpt><trkpt lat="45.59853485049703" lon="11.18389041546052"><ele>746.0</ele><time>2026-04-26T08:29:43.005Z</time></trkpt><trkpt lat="45.59850048315292" lon="11.183980082079465"><ele>746.0</ele><time>2026-04-26T08:29:47.005Z</time></trkpt><trkpt lat="45.5984477719005" lon="11.184049317855388"><ele>746.0</ele><time>2026-04-26T08:29:53.004Z</time></trkpt><trkpt lat="45.59841488024623" lon="11.184161526474266"><ele>746.0</ele><time>2026-04-26T08:29:56.004Z</time></trkpt><trkpt lat="45.598388690838966" lon="11.184268776671212"><ele>746.0</ele><time>2026-04-26T08:29:59.004Z</time></trkpt><trkpt lat="45.59838276193271" lon="11.184372253271976"><ele>746.0</ele><time>2026-04-26T08:30:02.006Z</time></trkpt><trkpt lat="45.598377145157585" lon="11.184467914221493"><ele>746.0</ele><time>2026-04-26T08:30:06.006Z</time></trkpt><trkpt lat="45.5983872443794" lon="11.184565353677076"><ele>746.4285714285714</ele><time>2026-04-26T08:30:13.007Z</time></trkpt><trkpt lat="45.59838345780478" lon="11.184663064283583"><ele>746.8571428571429</ele><time>2026-04-26T08:30:16.006Z</time></trkpt><trkpt lat="45.598380704684146" lon="11.184764784513"><ele>747.2857142857142</ele><time>2026-04-26T08:30:21.006Z</time></trkpt><trkpt lat="45.59832032023896" lon="11.184802777234076"><ele>747.7142857142858</ele><time>2026-04-26T08:30:44.005Z</time></trkpt><trkpt lat="45.59824547479951" lon="11.184765845127401"><ele>748.1428571428571</ele><time>2026-04-26T08:30:50.005Z</time></trkpt><trkpt lat="45.59818480705805" lon="11.184735314018187"><ele>748.5714285714286</ele><time>2026-04-26T08:30:54.005Z</time></trkpt><trkpt lat="45.598109499782275" lon="11.184681754845975"><ele>749.0</ele><time>2026-04-26T08:30:58.005Z</time></trkpt><trkpt lat="45.598040174942184" lon="11.18462604333264"><ele>749.0</ele><time>2026-04-26T08:31:01.005Z</time></trkpt><trkpt lat="45.59796968664622" lon="11.184606593132658"><ele>749.0</ele><time>2026-04-26T08:31:04.005Z</time></trkpt><trkpt lat="45.59789499775084" lon="11.18458130556006"><ele>749.0</ele><time>2026-04-26T08:31:06.005Z</time></trkpt><trkpt lat="45.59782909383671" lon="11.184558551477572"><ele>749.0</ele><time>2026-04-26T08:31:08.005Z</time></trkpt><trkpt lat="45.59776001033406" lon="11.184536564407274"><ele>749.0</ele><time>2026-04-26T08:31:10.005Z</time></trkpt><trkpt lat="45.59766774565745" lon="11.184527550837883"><ele>749.0</ele><time>2026-04-26T08:31:12.005Z</time></trkpt><trkpt lat="45.59760183979425" lon="11.184522486246937"><ele>749.0</ele><time>2026-04-26T08:31:14.005Z</time></trkpt><trkpt lat="45.597536696466946" lon="11.184523873065123"><ele>745.1666666666666</ele><time>2026-04-26T08:31:16.005Z</time></trkpt><trkpt lat="45.59745140923614" lon="11.184512256727599"><ele>741.3333333333333</ele><time>2026-04-26T08:31:19.005Z</time></trkpt><trkpt lat="45.59738731435816" lon="11.184533981153914"><ele>737.5</ele><time>2026-04-26T08:31:21.004Z</time></trkpt><trkpt lat="45.59728947349767" lon="11.184562703779923"><ele>733.6666666666666</ele><time>2026-04-26T08:31:24.004Z</time></trkpt><trkpt lat="45.597212892207" lon="11.184616976712276"><ele>729.8333333333334</ele><time>2026-04-26T08:31:27.004Z</time></trkpt><trkpt lat="45.59714480193248" lon="11.184632699199783"><ele>726.0</ele><time>2026-04-26T08:31:30.004Z</time></trkpt><trkpt lat="45.59708607712202" lon="11.184684110341578"><ele>726.0</ele><time>2026-04-26T08:31:33.004Z</time></trkpt><trkpt lat="45.59703938243048" lon="11.18478277845632"><ele>726.0</ele><time>2026-04-26T08:31:36.004Z</time></trkpt><trkpt lat="45.59701133398188" lon="11.184896960407869"><ele>726.0</ele><time>2026-04-26T08:31:39.004Z</time></trkpt><trkpt lat="45.59698027043986" lon="11.184992786254833"><ele>726.0</ele><time>2026-04-26T08:31:42.004Z</time></trkpt><trkpt lat="45.59694654257537" lon="11.185069351752329"><ele>726.0</ele><time>2026-04-26T08:31:45.004Z</time></trkpt><trkpt lat="45.59693838762015" lon="11.18516314729734"><ele>726.0</ele><time>2026-04-26T08:31:47.004Z</time></trkpt><trkpt lat="45.59692329396389" lon="11.185286514988555"><ele>723.8571428571428</ele><time>2026-04-26T08:31:50.004Z</time></trkpt><trkpt lat="45.596903237904066" lon="11.18537269670865"><ele>721.7142857142857</ele><time>2026-04-26T08:31:52.004Z</time></trkpt><trkpt lat="45.596884429173" lon="11.185476171567268"><ele>719.5714285714286</ele><time>2026-04-26T08:31:55.004Z</time></trkpt><trkpt lat="45.5968576035286" lon="11.18561496812735"><ele>717.4285714285713</ele><time>2026-04-26T08:31:58.004Z</time></trkpt><trkpt lat="45.596829484869566" lon="11.185709048057374"><ele>715.2857142857142</ele><time>2026-04-26T08:32:01.004Z</time></trkpt><trkpt lat="45.5968200274295" lon="11.185799205272716"><ele>713.1428571428571</ele><time>2026-04-26T08:32:04.004Z</time></trkpt><trkpt lat="45.596803019746915" lon="11.185887063463127"><ele>711.0</ele><time>2026-04-26T08:32:07.006Z</time></trkpt><trkpt lat="45.596785316325565" lon="11.185979290991831"><ele>711.0</ele><time>2026-04-26T08:32:10.006Z</time></trkpt><trkpt lat="45.596763011681055" lon="11.186086030618284"><ele>711.0</ele><time>2026-04-26T08:32:13.006Z</time></trkpt><trkpt lat="45.59673581567871" lon="11.18617631907986"><ele>711.0</ele><time>2026-04-26T08:32:16.006Z</time></trkpt><trkpt lat="45.59674083077522" lon="11.18628004186264"><ele>711.0</ele><time>2026-04-26T08:32:19.006Z</time></trkpt><trkpt lat="45.59672637595188" lon="11.186368673786804"><ele>711.0</ele><time>2026-04-26T08:32:22.006Z</time></trkpt><trkpt lat="45.596705248744584" lon="11.186462863060063"><ele>711.0</ele><time>2026-04-26T08:32:25.006Z</time></trkpt><trkpt lat="45.59671582065035" lon="11.186572127928697"><ele>711.0</ele><time>2026-04-26T08:32:29.006Z</time></trkpt><trkpt lat="45.59668438884196" lon="11.186657561921969"><ele>711.6666666666666</ele><time>2026-04-26T08:32:33.006Z</time></trkpt><trkpt lat="45.59665377799594" lon="11.18674891104571"><ele>712.3333333333334</ele><time>2026-04-26T08:32:35.006Z</time></trkpt><trkpt lat="45.59662490184589" lon="11.186852343675017"><ele>713.0</ele><time>2026-04-26T08:32:38.006Z</time></trkpt><trkpt lat="45.59657136272996" lon="11.18693761952167"><ele>713.6666666666667</ele><time>2026-04-26T08:32:41.006Z</time></trkpt><trkpt lat="45.596521968502365" lon="11.18704256980367"><ele>714.3333333333334</ele><time>2026-04-26T08:32:44.006Z</time></trkpt><trkpt lat="45.596474902422" lon="11.187113500010685"><ele>715.0</ele><time>2026-04-26T08:32:47.005Z</time></trkpt><trkpt lat="45.596426977843095" lon="11.187193251614755"><ele>715.0</ele><time>2026-04-26T08:32:50.005Z</time></trkpt><trkpt lat="45.59640646955173" lon="11.187287954546562"><ele>715.0</ele><time>2026-04-26T08:32:53.005Z</time></trkpt><trkpt lat="45.59646243125805" lon="11.187214952910109"><ele>715.0</ele><time>2026-04-26T08:33:04.005Z</time></trkpt><trkpt lat="45.596464043590224" lon="11.187111838399103"><ele>715.0</ele><time>2026-04-26T08:33:08.005Z</time></trkpt><trkpt lat="45.596480368777165" lon="11.186991070299172"><ele>715.0</ele><time>2026-04-26T08:33:12.005Z</time></trkpt><trkpt lat="45.596483988900054" lon="11.186899225992304"><ele>715.0</ele><time>2026-04-26T08:33:15.005Z</time></trkpt><trkpt lat="45.59649433519314" lon="11.186809745817316"><ele>715.0</ele><time>2026-04-26T08:33:18.005Z</time></trkpt><trkpt lat="45.596512323362255" lon="11.186690473800262"><ele>715.0</ele><time>2026-04-26T08:33:22.005Z</time></trkpt><trkpt lat="45.596551324719016" lon="11.186579091193979"><ele>715.0</ele><time>2026-04-26T08:33:26.005Z</time></trkpt><trkpt lat="45.59656845517915" lon="11.186485398158135"><ele>715.0</ele><time>2026-04-26T08:33:31.005Z</time></trkpt><trkpt lat="45.59655405577678" lon="11.186397625482568"><ele>715.0</ele><time>2026-04-26T08:33:34.004Z</time></trkpt><trkpt lat="45.59650871496825" lon="11.18630396169671"><ele>715.0</ele><time>2026-04-26T08:33:37.004Z</time></trkpt><trkpt lat="45.59648168174655" lon="11.18621107525416"><ele>715.0</ele><time>2026-04-26T08:33:40.004Z</time></trkpt><trkpt lat="45.5964422984831" lon="11.186084531731623"><ele>714.4285714285714</ele><time>2026-04-26T08:33:44.004Z</time></trkpt><trkpt lat="45.59641240784576" lon="11.185998514783634"><ele>713.8571428571428</ele><time>2026-04-26T08:33:46.004Z</time></trkpt><trkpt lat="45.59639035793428" lon="11.185892752616745"><ele>713.2857142857142</ele><time>2026-04-26T08:33:49.004Z</time></trkpt><trkpt lat="45.596372019217284" lon="11.185780455229759"><ele>712.7142857142858</ele><time>2026-04-26T08:33:53.004Z</time></trkpt><trkpt lat="45.596388789735286" lon="11.185674064785655"><ele>712.1428571428571</ele><time>2026-04-26T08:33:57.004Z</time></trkpt><trkpt lat="45.59638411206885" lon="11.185575039124496"><ele>711.5714285714286</ele><time>2026-04-26T08:34:00.004Z</time></trkpt><trkpt lat="45.59638455195658" lon="11.185465137765547"><ele>711.0</ele><time>2026-04-26T08:34:03.004Z</time></trkpt><trkpt lat="45.596370653970546" lon="11.185364666090232"><ele>710.8333333333334</ele><time>2026-04-26T08:34:06.004Z</time></trkpt><trkpt lat="45.596344791641826" lon="11.185253818049786"><ele>710.6666666666666</ele><time>2026-04-26T08:34:09.004Z</time></trkpt><trkpt lat="45.59635851918991" lon="11.185161607759776"><ele>710.5</ele><time>2026-04-26T08:34:11.004Z</time></trkpt><trkpt lat="45.59634791116982" lon="11.185038686696751"><ele>710.3333333333333</ele><time>2026-04-26T08:34:14.006Z</time></trkpt><trkpt lat="45.596362643605005" lon="11.18490870313371"><ele>710.1666666666666</ele><time>2026-04-26T08:34:17.007Z</time></trkpt><trkpt lat="45.5963662832883" lon="11.184814352575884"><ele>710.0</ele><time>2026-04-26T08:34:19.007Z</time></trkpt><trkpt lat="45.59634869392058" lon="11.184698917973286"><ele>708.1666666666666</ele><time>2026-04-26T08:34:21.007Z</time></trkpt><trkpt lat="45.596340858727146" lon="11.184605184008003"><ele>706.3333333333333</ele><time>2026-04-26T08:34:23.007Z</time></trkpt><trkpt lat="45.59636203103049" lon="11.18450207899721"><ele>704.5</ele><time>2026-04-26T08:34:26.006Z</time></trkpt><trkpt lat="45.59637855684603" lon="11.184378878414718"><ele>702.6666666666666</ele><time>2026-04-26T08:34:29.006Z</time></trkpt><trkpt lat="45.59638233475363" lon="11.184246439053993"><ele>700.8333333333334</ele><time>2026-04-26T08:34:32.006Z</time></trkpt><trkpt lat="45.596402907525835" lon="11.184143226388752"><ele>699.0</ele><time>2026-04-26T08:34:34.006Z</time></trkpt><trkpt lat="45.59642765065114" lon="11.18401526827537"><ele>697.5</ele><time>2026-04-26T08:34:36.006Z</time></trkpt><trkpt lat="45.59644980436629" lon="11.183905411557722"><ele>696.0</ele><time>2026-04-26T08:34:38.006Z</time></trkpt><trkpt lat="45.596486821087076" lon="11.183792977022875"><ele>694.5</ele><time>2026-04-26T08:34:40.006Z</time></trkpt><trkpt lat="45.5965308542657" lon="11.18368651880368"><ele>693.0</ele><time>2026-04-26T08:34:42.006Z</time></trkpt><trkpt lat="45.59656165828316" lon="11.183591314852633"><ele>691.5</ele><time>2026-04-26T08:34:44.006Z</time></trkpt><trkpt lat="45.59659858197574" lon="11.183511852100017"><ele>690.0</ele><time>2026-04-26T08:34:46.006Z</time></trkpt><trkpt lat="45.59662441160631" lon="11.183409020411974"><ele>690.0</ele><time>2026-04-26T08:34:48.006Z</time></trkpt><trkpt lat="45.596641859640044" lon="11.183312690281971"><ele>690.0</ele><time>2026-04-26T08:34:50.006Z</time></trkpt><trkpt lat="45.59666801740259" lon="11.183206154003194"><ele>690.0</ele><time>2026-04-26T08:34:52.006Z</time></trkpt><trkpt lat="45.596692652151205" lon="11.183107692756217"><ele>690.0</ele><time>2026-04-26T08:34:54.006Z</time></trkpt><trkpt lat="45.59670974429159" lon="11.182983477952673"><ele>690.0</ele><time>2026-04-26T08:34:57.006Z</time></trkpt><trkpt lat="45.59671016544462" lon="11.182848205759738"><ele>690.0</ele><time>2026-04-26T08:35:00.006Z</time></trkpt><trkpt lat="45.59670910078917" lon="11.182754062913036"><ele>689.5</ele><time>2026-04-26T08:35:02.005Z</time></trkpt><trkpt lat="45.59670452625153" lon="11.182654389926299"><ele>689.0</ele><time>2026-04-26T08:35:04.005Z</time></trkpt><trkpt lat="45.5967089994017" lon="11.182532758436006"><ele>688.5</ele><time>2026-04-26T08:35:07.005Z</time></trkpt><trkpt lat="45.59670945986626" lon="11.182411721108137"><ele>688.0</ele><time>2026-04-26T08:35:10.005Z</time></trkpt><trkpt lat="45.596719546720905" lon="11.182318720294484"><ele>687.5</ele><time>2026-04-26T08:35:12.005Z</time></trkpt><trkpt lat="45.59671566754748" lon="11.182180415527963"><ele>687.0</ele><time>2026-04-26T08:35:15.005Z</time></trkpt><trkpt lat="45.59671492006103" lon="11.18205472667409"><ele>686.1666666666666</ele><time>2026-04-26T08:35:18.005Z</time></trkpt><trkpt lat="45.596730832048515" lon="11.18193469863184"><ele>685.3333333333334</ele><time>2026-04-26T08:35:21.005Z</time></trkpt><trkpt lat="45.59674826845376" lon="11.181840276762998"><ele>684.5</ele><time>2026-04-26T08:35:23.005Z</time></trkpt><trkpt lat="45.596768355978575" lon="11.18170839120152"><ele>683.6666666666667</ele><time>2026-04-26T08:35:26.005Z</time></trkpt><trkpt lat="45.59677994995441" lon="11.181583605062649"><ele>682.8333333333334</ele><time>2026-04-26T08:35:29.005Z</time></trkpt><trkpt lat="45.596795650188085" lon="11.18145393700811"><ele>682.0</ele><time>2026-04-26T08:35:32.005Z</time></trkpt><trkpt lat="45.596799671343696" lon="11.181332485722573"><ele>680.2857142857142</ele><time>2026-04-26T08:35:35.005Z</time></trkpt><trkpt lat="45.59679988259523" lon="11.181235959799114"><ele>678.5714285714286</ele><time>2026-04-26T08:35:38.005Z</time></trkpt><trkpt lat="45.596781539113934" lon="11.181136167152289"><ele>676.8571428571429</ele><time>2026-04-26T08:35:46.005Z</time></trkpt><trkpt lat="45.59677763273559" lon="11.181043956289148"><ele>675.1428571428571</ele><time>2026-04-26T08:35:50.004Z</time></trkpt><trkpt lat="45.596762711638085" lon="11.180950783158998"><ele>673.4285714285714</ele><time>2026-04-26T08:35:53.004Z</time></trkpt><trkpt lat="45.59677758012568" lon="11.180851192623756"><ele>671.7142857142857</ele><time>2026-04-26T08:35:55.004Z</time></trkpt><trkpt lat="45.59675890750846" lon="11.180718040365486"><ele>670.0</ele><time>2026-04-26T08:35:58.004Z</time></trkpt><trkpt lat="45.59673833275789" lon="11.180622401157413"><ele>668.6</ele><time>2026-04-26T08:36:01.004Z</time></trkpt><trkpt lat="45.59665806120964" lon="11.180414147410422"><ele>667.2</ele><time>2026-04-26T08:36:12.004Z</time></trkpt><trkpt lat="45.596652723108406" lon="11.180303385117993"><ele>665.8</ele><time>2026-04-26T08:36:15.004Z</time></trkpt><trkpt lat="45.59665897646049" lon="11.18020396127175"><ele>664.4</ele><time>2026-04-26T08:36:19.008Z</time></trkpt><trkpt lat="45.596572419315855" lon="11.180182234124102"><ele>663.0</ele><time>2026-04-26T08:36:24.007Z</time></trkpt><trkpt lat="45.59650194103573" lon="11.180185148276868"><ele>662.9999999999999</ele><time>2026-04-26T08:36:27.007Z</time></trkpt><trkpt lat="45.596438746349" lon="11.18021636836885"><ele>663.0</ele><time>2026-04-26T08:36:30.007Z</time></trkpt><trkpt lat="45.596361768792065" lon="11.180224805847546"><ele>663.0</ele><time>2026-04-26T08:36:33.007Z</time></trkpt><trkpt lat="45.59628551973571" lon="11.180234086087053"><ele>663.0</ele><time>2026-04-26T08:36:36.007Z</time></trkpt><trkpt lat="45.596217416366464" lon="11.180182896074562"><ele>663.0</ele><time>2026-04-26T08:36:41.007Z</time></trkpt><trkpt lat="45.596143807555485" lon="11.180167196391405"><ele>662.9999999999999</ele><time>2026-04-26T08:36:44.007Z</time></trkpt><trkpt lat="45.596080319132554" lon="11.18015762248037"><ele>663.0</ele><time>2026-04-26T08:36:47.007Z</time></trkpt><trkpt lat="45.59600358746983" lon="11.180132091435057"><ele>665.5714285714286</ele><time>2026-04-26T08:36:51.007Z</time></trkpt><trkpt lat="45.59594182703361" lon="11.180093473331148"><ele>668.1428571428571</ele><time>2026-04-26T08:36:54.006Z</time></trkpt><trkpt lat="45.595880116183864" lon="11.180058854240572"><ele>670.7142857142858</ele><time>2026-04-26T08:36:57.006Z</time></trkpt><trkpt lat="45.59580593075638" lon="11.180046888195896"><ele>673.2857142857142</ele><time>2026-04-26T08:37:01.006Z</time></trkpt><trkpt lat="45.5957426623667" lon="11.180067074283249"><ele>675.8571428571429</ele><time>2026-04-26T08:37:05.006Z</time></trkpt><trkpt lat="45.59568484854604" lon="11.180139068093819"><ele>678.4285714285714</ele><time>2026-04-26T08:37:09.006Z</time></trkpt><trkpt lat="45.59562104613247" lon="11.180195317443298"><ele>681.0</ele><time>2026-04-26T08:37:14.006Z</time></trkpt><trkpt lat="45.5955577514133" lon="11.180198208192541"><ele>681.0</ele><time>2026-04-26T08:37:17.006Z</time></trkpt><trkpt lat="45.59548457869766" lon="11.18019135082821"><ele>681.0</ele><time>2026-04-26T08:37:20.006Z</time></trkpt><trkpt lat="45.59541960536458" lon="11.180210074632141"><ele>681.0</ele><time>2026-04-26T08:37:23.006Z</time></trkpt><trkpt lat="45.59534381793002" lon="11.180208572773802"><ele>681.0</ele><time>2026-04-26T08:37:27.006Z</time></trkpt><trkpt lat="45.59526368220097" lon="11.18018468910451"><ele>681.0</ele><time>2026-04-26T08:37:32.006Z</time></trkpt><trkpt lat="45.595223201533834" lon="11.180092302517352"><ele>681.0</ele><time>2026-04-26T08:37:56.005Z</time></trkpt><trkpt lat="45.59514542127746" lon="11.180088624266013"><ele>683.7142857142858</ele><time>2026-04-26T08:38:05.005Z</time></trkpt><trkpt lat="45.59511711264642" lon="11.18000684364372"><ele>686.4285714285714</ele><time>2026-04-26T08:38:15.005Z</time></trkpt><trkpt lat="45.595056186837006" lon="11.179962401580692"><ele>689.1428571428571</ele><time>2026-04-26T08:38:21.005Z</time></trkpt><trkpt lat="45.595025887093826" lon="11.17987651963166"><ele>691.8571428571429</ele><time>2026-04-26T08:38:28.008Z</time></trkpt><trkpt lat="45.59497723996443" lon="11.179808334127502"><ele>694.5714285714286</ele><time>2026-04-26T08:38:35.007Z</time></trkpt><trkpt lat="45.59492589341909" lon="11.179751838162783"><ele>697.2857142857143</ele><time>2026-04-26T08:38:45.008Z</time></trkpt><trkpt lat="45.59486705904498" lon="11.17970672763881"><ele>700.0</ele><time>2026-04-26T08:38:51.008Z</time></trkpt><trkpt lat="45.594826157824095" lon="11.17961450240381"><ele>703.1428571428571</ele><time>2026-04-26T08:38:59.007Z</time></trkpt><trkpt lat="45.59479174225201" lon="11.17953698442027"><ele>706.2857142857142</ele><time>2026-04-26T08:39:03.007Z</time></trkpt><trkpt lat="45.59473212767928" lon="11.179507988381607"><ele>709.4285714285714</ele><time>2026-04-26T08:39:09.007Z</time></trkpt><trkpt lat="45.594666022246905" lon="11.179491433759859"><ele>712.5714285714286</ele><time>2026-04-26T08:39:16.007Z</time></trkpt><trkpt lat="45.59459515796923" lon="11.179520148335483"><ele>715.7142857142857</ele><time>2026-04-26T08:39:21.007Z</time></trkpt><trkpt lat="45.594526761622824" lon="11.179514764356295"><ele>718.8571428571429</ele><time>2026-04-26T08:39:25.007Z</time></trkpt><trkpt lat="45.5944644504132" lon="11.179534417917623"><ele>722.0</ele><time>2026-04-26T08:39:30.007Z</time></trkpt><trkpt lat="45.594406887522965" lon="11.179491432690547"><ele>724.5714285714286</ele><time>2026-04-26T08:39:34.007Z</time></trkpt><trkpt lat="45.59434378523956" lon="11.179472616042247"><ele>727.1428571428571</ele><time>2026-04-26T08:39:39.007Z</time></trkpt><trkpt lat="45.5942778740233" lon="11.179469018312444"><ele>729.7142857142857</ele><time>2026-04-26T08:39:43.007Z</time></trkpt><trkpt lat="45.59420425502704" lon="11.179441076043112"><ele>732.2857142857142</ele><time>2026-04-26T08:39:50.006Z</time></trkpt><trkpt lat="45.594137346376804" lon="11.179413706405024"><ele>734.8571428571429</ele><time>2026-04-26T08:39:56.006Z</time></trkpt><trkpt lat="45.59414955873184" lon="11.17951136752511"><ele>737.4285714285713</ele><time>2026-04-26T08:40:07.006Z</time></trkpt><trkpt lat="45.5942189326559" lon="11.179539196841272"><ele>740.0</ele><time>2026-04-26T08:40:10.006Z</time></trkpt><trkpt lat="45.594294788619685" lon="11.179586427523487"><ele>740.0</ele><time>2026-04-26T08:40:14.006Z</time></trkpt><trkpt lat="45.594364270778485" lon="11.179669437930475"><ele>740.0</ele><time>2026-04-26T08:40:16.006Z</time></trkpt><trkpt lat="45.59445149598253" lon="11.179738025821022"><ele>740.0</ele><time>2026-04-26T08:40:19.006Z</time></trkpt><trkpt lat="45.594521610568734" lon="11.179809501429228"><ele>740.0</ele><time>2026-04-26T08:40:22.006Z</time></trkpt><trkpt lat="45.5945814735247" lon="11.179896647380632"><ele>740.0</ele><time>2026-04-26T08:40:25.006Z</time></trkpt><trkpt lat="45.59463981027241" lon="11.17994872459316"><ele>740.0</ele><time>2026-04-26T08:40:28.006Z</time></trkpt><trkpt lat="45.59467885113949" lon="11.180028529212265"><ele>733.3333333333333</ele><time>2026-04-26T08:40:32.008Z</time></trkpt><trkpt lat="45.59470904833795" lon="11.180141712090984"><ele>726.6666666666666</ele><time>2026-04-26T08:40:36.009Z</time></trkpt><trkpt lat="45.59475947549163" lon="11.180209521660114"><ele>720.0</ele><time>2026-04-26T08:40:39.009Z</time></trkpt><trkpt lat="45.59481802230252" lon="11.180258650993315"><ele>713.3333333333334</ele><time>2026-04-26T08:40:42.008Z</time></trkpt><trkpt lat="45.59488399288045" lon="11.180346527251746"><ele>706.6666666666667</ele><time>2026-04-26T08:40:45.008Z</time></trkpt><trkpt lat="45.59493862132639" lon="11.180427986019911"><ele>700.0</ele><time>2026-04-26T08:40:48.008Z</time></trkpt><trkpt lat="45.594995008616344" lon="11.18047313699557"><ele>700.0</ele><time>2026-04-26T08:40:51.008Z</time></trkpt><trkpt lat="45.595105138870174" lon="11.180472314870359"><ele>700.0</ele><time>2026-04-26T08:40:53.008Z</time></trkpt><trkpt lat="45.595254392955454" lon="11.180517991323203"><ele>700.0</ele><time>2026-04-26T08:41:04.008Z</time></trkpt><trkpt lat="45.595373626141765" lon="11.180512749429884"><ele>700.0</ele><time>2026-04-26T08:41:08.008Z</time></trkpt><trkpt lat="45.59547002202476" lon="11.180493379057728"><ele>696.8333333333334</ele><time>2026-04-26T08:41:10.008Z</time></trkpt><trkpt lat="45.59562608128789" lon="11.18048770285947"><ele>693.6666666666667</ele><time>2026-04-26T08:41:14.008Z</time></trkpt><trkpt lat="45.595707286654374" lon="11.180474308184563"><ele>690.5</ele><time>2026-04-26T08:41:17.008Z</time></trkpt><trkpt lat="45.59573024375086" lon="11.180385584836799"><ele>687.3333333333334</ele><time>2026-04-26T08:41:21.007Z</time></trkpt><trkpt lat="45.595699195533555" lon="11.180300111890714"><ele>684.1666666666666</ele><time>2026-04-26T08:41:25.007Z</time></trkpt><trkpt lat="45.595750040141944" lon="11.180236527020307"><ele>681.0</ele><time>2026-04-26T08:41:29.007Z</time></trkpt><trkpt lat="45.59579623027804" lon="11.180173428839224"><ele>681.0</ele><time>2026-04-26T08:41:34.007Z</time></trkpt><trkpt lat="45.595866027691734" lon="11.180036347383309"><ele>681.0</ele><time>2026-04-26T08:41:49.007Z</time></trkpt><trkpt lat="45.59592636958047" lon="11.180100145607845"><ele>681.0</ele><time>2026-04-26T08:42:07.007Z</time></trkpt><trkpt lat="45.59599804408818" lon="11.18010225922798"><ele>681.0</ele><time>2026-04-26T08:43:05.008Z</time></trkpt><trkpt lat="45.59592538587305" lon="11.180091257853771"><ele>681.0</ele><time>2026-04-26T08:43:13.008Z</time></trkpt><trkpt lat="45.595863916686916" lon="11.180068244278825"><ele>681.0</ele><time>2026-04-26T08:43:18.008Z</time></trkpt><trkpt lat="45.595790521624394" lon="11.180025768845109"><ele>681.0</ele><time>2026-04-26T08:43:21.008Z</time></trkpt><trkpt lat="45.595721467845586" lon="11.180033729969754"><ele>681.0</ele><time>2026-04-26T08:43:26.008Z</time></trkpt><trkpt lat="45.59564498694294" lon="11.180099783600449"><ele>681.0</ele><time>2026-04-26T08:43:29.008Z</time></trkpt><trkpt lat="45.59557038177708" lon="11.180149225790615"><ele>681.0</ele><time>2026-04-26T08:43:32.008Z</time></trkpt><trkpt lat="45.59550116364304" lon="11.180193921523582"><ele>681.0</ele><time>2026-04-26T08:43:35.008Z</time></trkpt><trkpt lat="45.59542693409308" lon="11.1802288212464"><ele>681.0</ele><time>2026-04-26T08:43:38.008Z</time></trkpt><trkpt lat="45.59533795170528" lon="11.180221482757045"><ele>683.7142857142858</ele><time>2026-04-26T08:43:41.008Z</time></trkpt><trkpt lat="45.595270200974625" lon="11.180200518530242"><ele>686.4285714285714</ele><time>2026-04-26T08:43:44.007Z</time></trkpt><trkpt lat="45.59519884373677" lon="11.18019441894301"><ele>689.1428571428571</ele><time>2026-04-26T08:43:47.007Z</time></trkpt><trkpt lat="45.59513923067681" lon="11.180152023478248"><ele>691.8571428571429</ele><time>2026-04-26T08:43:50.007Z</time></trkpt><trkpt lat="45.59507256877543" lon="11.180109732574499"><ele>694.5714285714286</ele><time>2026-04-26T08:43:53.007Z</time></trkpt><trkpt lat="45.595040072426656" lon="11.180031383222298"><ele>697.2857142857143</ele><time>2026-04-26T08:43:56.007Z</time></trkpt><trkpt lat="45.595013310685836" lon="11.179949564052297"><ele>700.0</ele><time>2026-04-26T08:43:59.007Z</time></trkpt><trkpt lat="45.59501472387835" lon="11.179855217772714"><ele>703.1428571428571</ele><time>2026-04-26T08:44:04.007Z</time></trkpt><trkpt lat="45.59503723464603" lon="11.179769028645763"><ele>706.2857142857142</ele><time>2026-04-26T08:44:09.007Z</time></trkpt><trkpt lat="45.594987815545366" lon="11.179689260345256"><ele>709.4285714285714</ele><time>2026-04-26T08:44:18.007Z</time></trkpt><trkpt lat="45.59494455779384" lon="11.17960822166209"><ele>712.5714285714286</ele><time>2026-04-26T08:44:29.007Z</time></trkpt><trkpt lat="45.59488125361206" lon="11.179570694916043"><ele>715.7142857142857</ele><time>2026-04-26T08:44:38.006Z</time></trkpt><trkpt lat="45.5948190755701" lon="11.179540939062573"><ele>718.8571428571429</ele><time>2026-04-26T08:44:45.009Z</time></trkpt><trkpt lat="45.59476796735367" lon="11.179474251202384"><ele>722.0</ele><time>2026-04-26T08:44:52.009Z</time></trkpt><trkpt lat="45.59470398406392" lon="11.179461111667429"><ele>722.0</ele><time>2026-04-26T08:44:56.009Z</time></trkpt><trkpt lat="45.5946356192921" lon="11.179487747136193"><ele>722.0</ele><time>2026-04-26T08:45:01.008Z</time></trkpt><trkpt lat="45.59457105875827" lon="11.179517223299225"><ele>722.0</ele><time>2026-04-26T08:45:05.008Z</time></trkpt><trkpt lat="45.59449593597076" lon="11.179530539093646"><ele>722.0</ele><time>2026-04-26T08:45:08.008Z</time></trkpt><trkpt lat="45.594420769029824" lon="11.179546321687674"><ele>722.0</ele><time>2026-04-26T08:45:11.008Z</time></trkpt><trkpt lat="45.594357591776415" lon="11.179549158547172"><ele>722.0</ele><time>2026-04-26T08:45:14.008Z</time></trkpt><trkpt lat="45.59428114989419" lon="11.179563436681025"><ele>722.0</ele><time>2026-04-26T08:45:18.008Z</time></trkpt><trkpt lat="45.594213491080566" lon="11.179531974999088"><ele>722.0</ele><time>2026-04-26T08:45:25.008Z</time></trkpt><trkpt lat="45.59414551214362" lon="11.179563700851684"><ele>722.0</ele><time>2026-04-26T08:45:31.008Z</time></trkpt><trkpt lat="45.59426499344429" lon="11.179624773426452"><ele>722.0</ele><time>2026-04-26T08:46:05.007Z</time></trkpt><trkpt lat="45.59432685650163" lon="11.17957661392643"><ele>722.0</ele><time>2026-04-26T08:46:08.007Z</time></trkpt><trkpt lat="45.59438788678194" lon="11.179540113287121"><ele>722.0</ele><time>2026-04-26T08:46:10.007Z</time></trkpt><trkpt lat="45.59445427362366" lon="11.179492165252825"><ele>722.0</ele><time>2026-04-26T08:46:13.007Z</time></trkpt><trkpt lat="45.594512553696795" lon="11.179440406838086"><ele>722.0</ele><time>2026-04-26T08:46:16.007Z</time></trkpt><trkpt lat="45.59457751362168" lon="11.179380125944709"><ele>722.0</ele><time>2026-04-26T08:46:20.007Z</time></trkpt><trkpt lat="45.59462235824714" lon="11.179301332820678"><ele>722.0</ele><time>2026-04-26T08:46:24.007Z</time></trkpt><trkpt lat="45.59464225956139" lon="11.179208285301137"><ele>722.0</ele><time>2026-04-26T08:46:27.007Z</time></trkpt><trkpt lat="45.594701701181" lon="11.179142676466327"><ele>722.0</ele><time>2026-04-26T08:46:36.006Z</time></trkpt><trkpt lat="45.59476679509575" lon="11.179119063196822"><ele>722.0</ele><time>2026-04-26T08:46:44.006Z</time></trkpt><trkpt lat="45.59482959664912" lon="11.179130088271878"><ele>722.0</ele><time>2026-04-26T08:46:47.009Z</time></trkpt><trkpt lat="45.59490591738298" lon="11.179161689276725"><ele>722.0</ele><time>2026-04-26T08:46:52.01Z</time></trkpt><trkpt lat="45.594976691093265" lon="11.17917824391785"><ele>722.0</ele><time>2026-04-26T08:46:55.009Z</time></trkpt><trkpt lat="45.595057540919946" lon="11.179199865328473"><ele>722.0</ele><time>2026-04-26T08:46:58.009Z</time></trkpt><trkpt lat="45.59513871348907" lon="11.179211460113434"><ele>722.0</ele><time>2026-04-26T08:47:01.01Z</time></trkpt><trkpt lat="45.595219610453356" lon="11.179172376905084"><ele>722.0</ele><time>2026-04-26T08:47:04.009Z</time></trkpt><trkpt lat="45.59528484494031" lon="11.17909547542077"><ele>722.0</ele><time>2026-04-26T08:47:07.009Z</time></trkpt><trkpt lat="45.59535588037653" lon="11.17905892404534"><ele>725.8333333333333</ele><time>2026-04-26T08:47:10.009Z</time></trkpt><trkpt lat="45.595416113695165" lon="11.179010811053585"><ele>729.6666666666666</ele><time>2026-04-26T08:47:13.009Z</time></trkpt><trkpt lat="45.59548645908582" lon="11.178989737769527"><ele>733.5</ele><time>2026-04-26T08:47:16.009Z</time></trkpt><trkpt lat="45.595559061109" lon="11.179012684038687"><ele>737.3333333333334</ele><time>2026-04-26T08:47:20.009Z</time></trkpt><trkpt lat="45.59564228813434" lon="11.179002427315428"><ele>741.1666666666667</ele><time>2026-04-26T08:47:24.009Z</time></trkpt><trkpt lat="45.5957158430195" lon="11.17894266132243"><ele>745.0</ele><time>2026-04-26T08:47:28.009Z</time></trkpt><trkpt lat="45.595747804439405" lon="11.178855791399792"><ele>745.0</ele><time>2026-04-26T08:47:34.009Z</time></trkpt><trkpt lat="45.595795856463624" lon="11.17877984463556"><ele>745.0</ele><time>2026-04-26T08:47:40.009Z</time></trkpt><trkpt lat="45.59584306236441" lon="11.178716595724413"><ele>745.0</ele><time>2026-04-26T08:47:43.009Z</time></trkpt><trkpt lat="45.59588221478962" lon="11.178633425973695"><ele>745.0</ele><time>2026-04-26T08:47:46.009Z</time></trkpt><trkpt lat="45.595925489731265" lon="11.178543855610942"><ele>745.0</ele><time>2026-04-26T08:47:50.009Z</time></trkpt><trkpt lat="45.595939879700985" lon="11.178428936360937"><ele>745.0</ele><time>2026-04-26T08:47:55.008Z</time></trkpt><trkpt lat="45.595936054945554" lon="11.178335242167973"><ele>745.0</ele><time>2026-04-26T08:47:59.008Z</time></trkpt><trkpt lat="45.595928937844704" lon="11.178230265849479"><ele>748.1428571428571</ele><time>2026-04-26T08:48:07.008Z</time></trkpt><trkpt lat="45.595953872942985" lon="11.17812032977566"><ele>751.2857142857142</ele><time>2026-04-26T08:48:13.008Z</time></trkpt><trkpt lat="45.595987014824615" lon="11.178005568405588"><ele>754.4285714285714</ele><time>2026-04-26T08:48:18.008Z</time></trkpt><trkpt lat="45.59598580273" lon="11.177899312840603"><ele>757.5714285714286</ele><time>2026-04-26T08:48:22.008Z</time></trkpt><trkpt lat="45.59594162510741" lon="11.177820697721664"><ele>760.7142857142858</ele><time>2026-04-26T08:48:30.008Z</time></trkpt><trkpt lat="45.59590102834909" lon="11.177891039089054"><ele>763.8571428571429</ele><time>2026-04-26T08:48:35.008Z</time></trkpt><trkpt lat="45.59584251176352" lon="11.177948702938838"><ele>767.0</ele><time>2026-04-26T08:48:40.007Z</time></trkpt><trkpt lat="45.595818704685605" lon="11.178033298985246"><ele>767.0</ele><time>2026-04-26T08:48:51.009Z</time></trkpt><trkpt lat="45.595776462066524" lon="11.178121551557958"><ele>767.0</ele><time>2026-04-26T08:48:58.009Z</time></trkpt><trkpt lat="45.595740725482486" lon="11.178198555982021"><ele>767.0</ele><time>2026-04-26T08:49:06.009Z</time></trkpt><trkpt lat="45.59568700724928" lon="11.17827888014054"><ele>767.0</ele><time>2026-04-26T08:49:10.009Z</time></trkpt><trkpt lat="45.59564597862428" lon="11.178355081540632"><ele>767.0</ele><time>2026-04-26T08:49:14.009Z</time></trkpt><trkpt lat="45.595595621571015" lon="11.178416715054224"><ele>767.0</ele><time>2026-04-26T08:49:18.009Z</time></trkpt><trkpt lat="45.59553013814366" lon="11.178407561838442"><ele>767.0</ele><time>2026-04-26T08:49:23.009Z</time></trkpt><trkpt lat="45.595438378932165" lon="11.178388831164948"><ele>765.4285714285714</ele><time>2026-04-26T08:49:37.008Z</time></trkpt><trkpt lat="45.59537024122414" lon="11.17840735403068"><ele>763.8571428571429</ele><time>2026-04-26T08:49:44.008Z</time></trkpt><trkpt lat="45.59529798686913" lon="11.17840387622498"><ele>762.2857142857142</ele><time>2026-04-26T08:49:48.008Z</time></trkpt><trkpt lat="45.595239143847984" lon="11.178351174227952"><ele>760.7142857142858</ele><time>2026-04-26T08:49:52.008Z</time></trkpt><trkpt lat="45.595158849309286" lon="11.178315496029938"><ele>759.1428571428571</ele><time>2026-04-26T08:49:55.008Z</time></trkpt><trkpt lat="45.59509161699991" lon="11.17829372568726"><ele>757.5714285714286</ele><time>2026-04-26T08:49:58.008Z</time></trkpt><trkpt lat="45.59501209789323" lon="11.178257132813323"><ele>756.0</ele><time>2026-04-26T08:50:01.008Z</time></trkpt><trkpt lat="45.59494214038243" lon="11.178231130453728"><ele>760.5714285714286</ele><time>2026-04-26T08:50:04.008Z</time></trkpt><trkpt lat="45.59488322637021" lon="11.178167855090818"><ele>765.1428571428571</ele><time>2026-04-26T08:50:07.008Z</time></trkpt><trkpt lat="45.594817420071905" lon="11.178106968657278"><ele>769.7142857142858</ele><time>2026-04-26T08:50:10.008Z</time></trkpt><trkpt lat="45.594745210279974" lon="11.17805186280636"><ele>774.2857142857142</ele><time>2026-04-26T08:50:14.008Z</time></trkpt><trkpt lat="45.59469539590897" lon="11.177987641081488"><ele>778.8571428571429</ele><time>2026-04-26T08:50:17.008Z</time></trkpt><trkpt lat="45.59462143893655" lon="11.177936744222123"><ele>783.4285714285714</ele><time>2026-04-26T08:50:21.008Z</time></trkpt><trkpt lat="45.594558655761396" lon="11.177919378852645"><ele>788.0</ele><time>2026-04-26T08:50:25.007Z</time></trkpt><trkpt lat="45.594493980435225" lon="11.177878196037932"><ele>788.1666666666667</ele><time>2026-04-26T08:50:30.007Z</time></trkpt><trkpt lat="45.59444676810588" lon="11.177805990341286"><ele>788.3333333333334</ele><time>2026-04-26T08:50:33.007Z</time></trkpt><trkpt lat="45.59437123461638" lon="11.177751932860941"><ele>788.5</ele><time>2026-04-26T08:50:37.007Z</time></trkpt><trkpt lat="45.594303547981575" lon="11.177731535312637"><ele>788.6666666666667</ele><time>2026-04-26T08:50:40.007Z</time></trkpt><trkpt lat="45.59422521698135" lon="11.177701836860141"><ele>788.8333333333334</ele><time>2026-04-26T08:50:43.007Z</time></trkpt><trkpt lat="45.59415859147981" lon="11.177714970328022"><ele>789.0</ele><time>2026-04-26T08:50:46.007Z</time></trkpt><trkpt lat="45.59407423911397" lon="11.177749696061648"><ele>788.9999999999999</ele><time>2026-04-26T08:50:50.007Z</time></trkpt><trkpt lat="45.59401607190284" lon="11.177788155042666"><ele>789.0</ele><time>2026-04-26T08:50:53.007Z</time></trkpt><trkpt lat="45.59395540915839" lon="11.177847874482717"><ele>789.0</ele><time>2026-04-26T08:50:56.007Z</time></trkpt><trkpt lat="45.59392116923701" lon="11.17794098066624"><ele>789.0</ele><time>2026-04-26T08:50:59.009Z</time></trkpt><trkpt lat="45.59389361200613" lon="11.178036935826931"><ele>789.0</ele><time>2026-04-26T08:51:02.01Z</time></trkpt><trkpt lat="45.59386413608311" lon="11.178140290072026"><ele>788.9999999999999</ele><time>2026-04-26T08:51:06.009Z</time></trkpt><trkpt lat="45.59384740965467" lon="11.178228653885999"><ele>789.0</ele><time>2026-04-26T08:51:09.01Z</time></trkpt><trkpt lat="45.59382088104212" lon="11.178314688617803"><ele>788.9999999999999</ele><time>2026-04-26T08:51:12.01Z</time></trkpt><trkpt lat="45.593770341457095" lon="11.178399709753949"><ele>789.0</ele><time>2026-04-26T08:51:16.009Z</time></trkpt><trkpt lat="45.593700315099134" lon="11.178383244858901"><ele>789.0</ele><time>2026-04-26T08:51:20.009Z</time></trkpt><trkpt lat="45.59363418466339" lon="11.17838282460015"><ele>789.0</ele><time>2026-04-26T08:51:25.009Z</time></trkpt><trkpt lat="45.59356325041543" lon="11.17836597291105"><ele>789.0</ele><time>2026-04-26T08:51:35.009Z</time></trkpt><trkpt lat="45.5934948521519" lon="11.178384923772994"><ele>788.9999999999999</ele><time>2026-04-26T08:51:40.009Z</time></trkpt><trkpt lat="45.59342440698505" lon="11.178369870007671"><ele>789.0</ele><time>2026-04-26T08:51:44.009Z</time></trkpt><trkpt lat="45.59334074650167" lon="11.178368870490267"><ele>789.0</ele><time>2026-04-26T08:51:47.009Z</time></trkpt><trkpt lat="45.593261936794086" lon="11.178412317213649"><ele>789.0</ele><time>2026-04-26T08:51:50.009Z</time></trkpt><trkpt lat="45.59322584291706" lon="11.178508053997088"><ele>789.0</ele><time>2026-04-26T08:51:53.009Z</time></trkpt><trkpt lat="45.593176709358836" lon="11.17858568096818"><ele>789.0</ele><time>2026-04-26T08:51:56.009Z</time></trkpt><trkpt lat="45.59312605445947" lon="11.178672275126788"><ele>789.0</ele><time>2026-04-26T08:51:59.009Z</time></trkpt><trkpt lat="45.59307336562045" lon="11.17875497973962"><ele>789.0</ele><time>2026-04-26T08:52:02.008Z</time></trkpt><trkpt lat="45.59302069436335" lon="11.178827281542755"><ele>788.9999999999999</ele><time>2026-04-26T08:52:05.008Z</time></trkpt><trkpt lat="45.592953625843776" lon="11.178871857220829"><ele>789.0</ele><time>2026-04-26T08:52:08.008Z</time></trkpt><trkpt lat="45.59287841338787" lon="11.178914632729073"><ele>789.0</ele><time>2026-04-26T08:52:12.008Z</time></trkpt><trkpt lat="45.592816885422664" lon="11.178952485826564"><ele>789.0</ele><time>2026-04-26T08:52:15.008Z</time></trkpt><trkpt lat="45.59276101601723" lon="11.179025277164774"><ele>789.0</ele><time>2026-04-26T08:52:32.008Z</time></trkpt><trkpt lat="45.59270153538125" lon="11.179064850397651"><ele>788.9999999999999</ele><time>2026-04-26T08:52:35.008Z</time></trkpt><trkpt lat="45.59264221945888" lon="11.179114617231118"><ele>789.0</ele><time>2026-04-26T08:52:38.008Z</time></trkpt><trkpt lat="45.592578417760244" lon="11.179179549718844"><ele>788.7142857142857</ele><time>2026-04-26T08:52:42.008Z</time></trkpt><trkpt lat="45.59251952357867" lon="11.179251152032403"><ele>788.4285714285714</ele><time>2026-04-26T08:52:46.008Z</time></trkpt><trkpt lat="45.59244537440668" lon="11.179283202942601"><ele>788.1428571428571</ele><time>2026-04-26T08:52:50.007Z</time></trkpt><trkpt lat="45.592386400631554" lon="11.17932704227932"><ele>787.8571428571429</ele><time>2026-04-26T08:52:53.007Z</time></trkpt><trkpt lat="45.59231904284561" lon="11.179364261333191"><ele>787.5714285714286</ele><time>2026-04-26T08:52:57.007Z</time></trkpt><trkpt lat="45.59224772421184" lon="11.17940496614508"><ele>787.2857142857142</ele><time>2026-04-26T08:53:03.01Z</time></trkpt><trkpt lat="45.5921742698497" lon="11.179429365549906"><ele>787.0</ele><time>2026-04-26T08:53:08.009Z</time></trkpt><trkpt lat="45.592111833694034" lon="11.179458969849504"><ele>787.0</ele><time>2026-04-26T08:53:11.01Z</time></trkpt><trkpt lat="45.592041869334075" lon="11.179489699419062"><ele>787.0</ele><time>2026-04-26T08:53:15.01Z</time></trkpt><trkpt lat="45.59197676061137" lon="11.17952407847307"><ele>787.0</ele><time>2026-04-26T08:53:21.009Z</time></trkpt><trkpt lat="45.591910204234885" lon="11.179550095744146"><ele>787.0</ele><time>2026-04-26T08:53:28.009Z</time></trkpt><trkpt lat="45.59184331247928" lon="11.179556919056031"><ele>787.0</ele><time>2026-04-26T08:53:33.009Z</time></trkpt><trkpt lat="45.59177206206237" lon="11.179594046157655"><ele>787.0</ele><time>2026-04-26T08:53:41.009Z</time></trkpt><trkpt lat="45.591709818404745" lon="11.17961177899704"><ele>787.0</ele><time>2026-04-26T08:53:48.008Z</time></trkpt><trkpt lat="45.59164058989485" lon="11.179601483677253"><ele>788.7142857142857</ele><time>2026-04-26T08:53:54.008Z</time></trkpt><trkpt lat="45.59158222939308" lon="11.179652247115106"><ele>790.4285714285713</ele><time>2026-04-26T08:54:01.008Z</time></trkpt><trkpt lat="45.59154790244265" lon="11.179742119137916"><ele>792.1428571428571</ele><time>2026-04-26T08:54:07.008Z</time></trkpt><trkpt lat="45.59153570810506" lon="11.179832962799045"><ele>793.8571428571429</ele><time>2026-04-26T08:54:10.008Z</time></trkpt><trkpt lat="45.591474854110004" lon="11.179895032802873"><ele>795.5714285714286</ele><time>2026-04-26T08:54:14.008Z</time></trkpt><trkpt lat="45.59143202195057" lon="11.1799799984018"><ele>797.2857142857143</ele><time>2026-04-26T08:54:17.008Z</time></trkpt><trkpt lat="45.59136526863504" lon="11.180059463560253"><ele>799.0</ele><time>2026-04-26T08:54:20.008Z</time></trkpt><trkpt lat="45.59130145384968" lon="11.1801450629044"><ele>798.9999999999999</ele><time>2026-04-26T08:54:23.008Z</time></trkpt><trkpt lat="45.59124246175431" lon="11.180222460132327"><ele>799.0</ele><time>2026-04-26T08:54:26.008Z</time></trkpt><trkpt lat="45.59117459284745" lon="11.180293167868863"><ele>799.0</ele><time>2026-04-26T08:54:29.008Z</time></trkpt><trkpt lat="45.5911125449461" lon="11.18037751937164"><ele>799.0</ele><time>2026-04-26T08:54:32.008Z</time></trkpt><trkpt lat="45.59104324296621" lon="11.180435921060031"><ele>798.9999999999999</ele><time>2026-04-26T08:54:35.007Z</time></trkpt><trkpt lat="45.59098507951739" lon="11.180488259504356"><ele>799.0</ele><time>2026-04-26T08:54:38.007Z</time></trkpt><trkpt lat="45.59093876574171" lon="11.180578930815923"><ele>803.5714285714286</ele><time>2026-04-26T08:54:41.007Z</time></trkpt><trkpt lat="45.590898924235596" lon="11.180659148476089"><ele>808.1428571428571</ele><time>2026-04-26T08:54:44.007Z</time></trkpt><trkpt lat="45.59085710236555" lon="11.180726749925908"><ele>812.7142857142857</ele><time>2026-04-26T08:54:47.007Z</time></trkpt><trkpt lat="45.59080221257531" lon="11.18078212323079"><ele>817.2857142857142</ele><time>2026-04-26T08:54:50.007Z</time></trkpt><trkpt lat="45.59075491493071" lon="11.1808434732585"><ele>821.8571428571429</ele><time>2026-04-26T08:54:53.007Z</time></trkpt><trkpt lat="45.59071797093373" lon="11.180938742135371"><ele>826.4285714285713</ele><time>2026-04-26T08:54:57.007Z</time></trkpt><trkpt lat="45.590685607498266" lon="11.181032140339873"><ele>831.0</ele><time>2026-04-26T08:55:01.007Z</time></trkpt><trkpt lat="45.5906559301547" lon="11.181112931094882"><ele>831.0</ele><time>2026-04-26T08:55:04.007Z</time></trkpt><trkpt lat="45.59065570036514" lon="11.181232274556065"><ele>831.0</ele><time>2026-04-26T08:55:07.007Z</time></trkpt><trkpt lat="45.5907106227348" lon="11.181288794524312"><ele>831.0</ele><time>2026-04-26T08:55:09.01Z</time></trkpt><trkpt lat="45.59078380705528" lon="11.181302999012573"><ele>831.0</ele><time>2026-04-26T08:55:11.01Z</time></trkpt><trkpt lat="45.59086860760851" lon="11.181279742764563"><ele>831.0</ele><time>2026-04-26T08:55:14.01Z</time></trkpt><trkpt lat="45.59094089968787" lon="11.181283125418739"><ele>831.0</ele><time>2026-04-26T08:55:17.01Z</time></trkpt><trkpt lat="45.59101372875787" lon="11.181290224627258"><ele>830.9999999999999</ele><time>2026-04-26T08:55:21.01Z</time></trkpt><trkpt lat="45.59108393465881" lon="11.181303798241522"><ele>831.0</ele><time>2026-04-26T08:55:27.01Z</time></trkpt><trkpt lat="45.5911405263856" lon="11.181354365815539"><ele>831.0</ele><time>2026-04-26T08:55:33.01Z</time></trkpt><trkpt lat="45.59121061527328" lon="11.181326377691551"><ele>831.0</ele><time>2026-04-26T08:55:38.01Z</time></trkpt><trkpt lat="45.59127689522897" lon="11.18130831743412"><ele>831.0</ele><time>2026-04-26T08:55:43.01Z</time></trkpt><trkpt lat="45.59135076239304" lon="11.181347675250974"><ele>830.9999999999999</ele><time>2026-04-26T08:55:47.01Z</time></trkpt><trkpt lat="45.59130378358134" lon="11.181410651777398"><ele>831.0</ele><time>2026-04-26T08:55:54.01Z</time></trkpt><trkpt lat="45.59123327207801" lon="11.181471441842511"><ele>831.1428571428571</ele><time>2026-04-26T08:55:59.009Z</time></trkpt><trkpt lat="45.591166887338815" lon="11.181533932387067"><ele>831.2857142857142</ele><time>2026-04-26T08:56:03.009Z</time></trkpt><trkpt lat="45.591100384480015" lon="11.181581647575356"><ele>831.4285714285713</ele><time>2026-04-26T08:56:07.009Z</time></trkpt><trkpt lat="45.59102528903276" lon="11.181559286219928"><ele>831.5714285714286</ele><time>2026-04-26T08:56:12.009Z</time></trkpt><trkpt lat="45.5909648815358" lon="11.18153166241958"><ele>831.7142857142858</ele><time>2026-04-26T08:56:17.009Z</time></trkpt><trkpt lat="45.59090185281967" lon="11.181528158122342"><ele>831.8571428571428</ele><time>2026-04-26T08:56:21.009Z</time></trkpt><trkpt lat="45.590844200051386" lon="11.181588543718645"><ele>832.0</ele><time>2026-04-26T08:56:29.009Z</time></trkpt><trkpt lat="45.59080104915359" lon="11.181671327808713"><ele>831.9999999999999</ele><time>2026-04-26T08:56:37.009Z</time></trkpt><trkpt lat="45.59075431869064" lon="11.181739770504645"><ele>832.0</ele><time>2026-04-26T08:56:43.009Z</time></trkpt><trkpt lat="45.590688475253266" lon="11.18179026904942"><ele>832.0</ele><time>2026-04-26T08:56:48.008Z</time></trkpt><trkpt lat="45.59061394074297" lon="11.1818546159928"><ele>832.0</ele><time>2026-04-26T08:56:52.008Z</time></trkpt><trkpt lat="45.590536365116414" lon="11.181892624987945"><ele>831.9999999999999</ele><time>2026-04-26T08:56:55.008Z</time></trkpt><trkpt lat="45.59046722891662" lon="11.181878941884886"><ele>832.0</ele><time>2026-04-26T08:56:58.008Z</time></trkpt><trkpt lat="45.59040352133798" lon="11.181831063542832"><ele>831.9999999999999</ele><time>2026-04-26T08:57:01.008Z</time></trkpt><trkpt lat="45.59037028622995" lon="11.181751546508789"><ele>832.0</ele><time>2026-04-26T08:57:04.008Z</time></trkpt><trkpt lat="45.59036111067199" lon="11.181638425376256"><ele>832.0</ele><time>2026-04-26T08:57:08.008Z</time></trkpt><trkpt lat="45.590346694878924" lon="11.181549165440446"><ele>832.0</ele><time>2026-04-26T08:57:11.008Z</time></trkpt><trkpt lat="45.59036054664238" lon="11.18143040430419"><ele>831.9999999999999</ele><time>2026-04-26T08:57:15.011Z</time></trkpt><trkpt lat="45.5903779965807" lon="11.181312568481228"><ele>832.0</ele><time>2026-04-26T08:57:19.01Z</time></trkpt><trkpt lat="45.59038332594893" lon="11.181200108620407"><ele>831.8571428571428</ele><time>2026-04-26T08:57:23.01Z</time></trkpt><trkpt lat="45.590410061130385" lon="11.181083904987942"><ele>831.7142857142858</ele><time>2026-04-26T08:57:27.01Z</time></trkpt><trkpt lat="45.59045120076172" lon="11.181008156159132"><ele>831.5714285714286</ele><time>2026-04-26T08:57:30.01Z</time></trkpt><trkpt lat="45.59048676271309" lon="11.180914745268966"><ele>831.4285714285713</ele><time>2026-04-26T08:57:33.01Z</time></trkpt><trkpt lat="45.59049866174181" lon="11.180810186003677"><ele>831.2857142857142</ele><time>2026-04-26T08:57:36.01Z</time></trkpt><trkpt lat="45.59051095911614" lon="11.180718117176143"><ele>831.1428571428571</ele><time>2026-04-26T08:57:39.01Z</time></trkpt><trkpt lat="45.59054273505296" lon="11.180620348076713"><ele>831.0</ele><time>2026-04-26T08:57:43.01Z</time></trkpt><trkpt lat="45.59058043736346" lon="11.180518138814236"><ele>832.8571428571428</ele><time>2026-04-26T08:57:47.01Z</time></trkpt><trkpt lat="45.59061607672263" lon="11.1804344463057"><ele>834.7142857142857</ele><time>2026-04-26T08:57:52.01Z</time></trkpt><trkpt lat="45.590648916442795" lon="11.180338538896502"><ele>836.5714285714286</ele><time>2026-04-26T08:57:57.01Z</time></trkpt><trkpt lat="45.5906321885686" lon="11.180235772481293"><ele>838.4285714285713</ele><time>2026-04-26T08:58:02.01Z</time></trkpt><trkpt lat="45.59061790180184" lon="11.180130190469688"><ele>840.2857142857143</ele><time>2026-04-26T08:58:06.009Z</time></trkpt><trkpt lat="45.59059301773374" lon="11.180042845682133"><ele>842.1428571428571</ele><time>2026-04-26T08:58:11.009Z</time></trkpt><trkpt lat="45.59061499038489" lon="11.179949750710389"><ele>844.0</ele><time>2026-04-26T08:58:20.009Z</time></trkpt><trkpt lat="45.59063722675899" lon="11.17986172219521"><ele>845.7142857142858</ele><time>2026-04-26T08:58:26.009Z</time></trkpt><trkpt lat="45.590664208333195" lon="11.179759807963217"><ele>847.4285714285714</ele><time>2026-04-26T08:58:34.009Z</time></trkpt><trkpt lat="45.5906838779632" lon="11.17966213967003"><ele>849.1428571428571</ele><time>2026-04-26T08:58:40.009Z</time></trkpt><trkpt lat="45.59069207825052" lon="11.17956695215365"><ele>850.8571428571429</ele><time>2026-04-26T08:58:45.009Z</time></trkpt><trkpt lat="45.59067799136862" lon="11.179461829827746"><ele>852.5714285714286</ele><time>2026-04-26T08:58:52.009Z</time></trkpt><trkpt lat="45.590652672290396" lon="11.17936880906212"><ele>854.2857142857143</ele><time>2026-04-26T08:58:56.008Z</time></trkpt><trkpt lat="45.590632281990736" lon="11.179267634825278"><ele>856.0</ele><time>2026-04-26T08:59:00.008Z</time></trkpt><trkpt lat="45.5906442537821" lon="11.179166913514802"><ele>856.0000000000001</ele><time>2026-04-26T08:59:04.008Z</time></trkpt><trkpt lat="45.5906630717745" lon="11.179058613961072"><ele>856.0</ele><time>2026-04-26T08:59:08.008Z</time></trkpt><trkpt lat="45.590681087561386" lon="11.178971669973526"><ele>856.0</ele><time>2026-04-26T08:59:11.008Z</time></trkpt><trkpt lat="45.59070677483401" lon="11.178873739820792"><ele>856.0</ele><time>2026-04-26T08:59:14.008Z</time></trkpt><trkpt lat="45.59072202541287" lon="11.178779496364776"><ele>856.0</ele><time>2026-04-26T08:59:17.008Z</time></trkpt><trkpt lat="45.590735594358385" lon="11.178681481738685"><ele>856.0000000000001</ele><time>2026-04-26T08:59:20.01Z</time></trkpt><trkpt lat="45.59075395147091" lon="11.178580109794956"><ele>856.0</ele><time>2026-04-26T08:59:24.01Z</time></trkpt><trkpt lat="45.59077990456913" lon="11.178485631972238"><ele>856.7142857142858</ele><time>2026-04-26T08:59:29.01Z</time></trkpt><trkpt lat="45.59078122389769" lon="11.178380657343931"><ele>857.4285714285714</ele><time>2026-04-26T08:59:34.01Z</time></trkpt><trkpt lat="45.59071675330868" lon="11.178393882665011"><ele>858.1428571428571</ele><time>2026-04-26T08:59:38.01Z</time></trkpt><trkpt lat="45.59064860616696" lon="11.178453853582722"><ele>858.8571428571429</ele><time>2026-04-26T08:59:42.01Z</time></trkpt><trkpt lat="45.590603831664666" lon="11.178524306577158"><ele>859.5714285714286</ele><time>2026-04-26T08:59:46.009Z</time></trkpt><trkpt lat="45.59055442076113" lon="11.178622305373649"><ele>860.2857142857143</ele><time>2026-04-26T08:59:50.009Z</time></trkpt><trkpt lat="45.590501965356104" lon="11.178698116050825"><ele>861.0</ele><time>2026-04-26T08:59:53.009Z</time></trkpt><trkpt lat="45.590447044240356" lon="11.178776663867453"><ele>861.0</ele><time>2026-04-26T08:59:56.009Z</time></trkpt><trkpt lat="45.5903862350485" lon="11.178880820806427"><ele>861.0</ele><time>2026-04-26T08:59:59.009Z</time></trkpt><trkpt lat="45.59031692249355" lon="11.178977145778557"><ele>861.0</ele><time>2026-04-26T09:00:02.009Z</time></trkpt><trkpt lat="45.59025492593058" lon="11.179046046610683"><ele>861.0</ele><time>2026-04-26T09:00:05.009Z</time></trkpt><trkpt lat="45.59020465258252" lon="11.179102189170296"><ele>861.0</ele><time>2026-04-26T09:00:07.009Z</time></trkpt><trkpt lat="45.59014019073223" lon="11.179174009006433"><ele>861.0</ele><time>2026-04-26T09:00:10.009Z</time></trkpt><trkpt lat="45.59006985757067" lon="11.179229506427623"><ele>862.5</ele><time>2026-04-26T09:00:13.009Z</time></trkpt><trkpt lat="45.5899973253607" lon="11.179298466939123"><ele>864.0</ele><time>2026-04-26T09:00:16.009Z</time></trkpt><trkpt lat="45.589927676102185" lon="11.179356017165162"><ele>865.5</ele><time>2026-04-26T09:00:19.009Z</time></trkpt><trkpt lat="45.589846762171284" lon="11.17938174800112"><ele>867.0</ele><time>2026-04-26T09:00:22.009Z</time></trkpt><trkpt lat="45.589777110843094" lon="11.179397411738247"><ele>868.5</ele><time>2026-04-26T09:00:25.009Z</time></trkpt><trkpt lat="45.58969572171566" lon="11.179398024215057"><ele>870.0</ele><time>2026-04-26T09:00:28.009Z</time></trkpt><trkpt lat="45.589616255566355" lon="11.179417708607225"><ele>870.0</ele><time>2026-04-26T09:00:31.009Z</time></trkpt><trkpt lat="45.58954978622084" lon="11.179433827249392"><ele>870.0</ele><time>2026-04-26T09:00:34.008Z</time></trkpt><trkpt lat="45.58948074601566" lon="11.179486837570327"><ele>870.0</ele><time>2026-04-26T09:00:37.008Z</time></trkpt><trkpt lat="45.58941823066413" lon="11.179588157436608"><ele>870.0</ele><time>2026-04-26T09:00:40.008Z</time></trkpt><trkpt lat="45.58936419198884" lon="11.179681295504539"><ele>870.0</ele><time>2026-04-26T09:00:43.008Z</time></trkpt><trkpt lat="45.589329707980006" lon="11.17979048002046"><ele>870.0</ele><time>2026-04-26T09:00:46.008Z</time></trkpt><trkpt lat="45.58928631148937" lon="11.179893783769304"><ele>869.8333333333334</ele><time>2026-04-26T09:00:49.008Z</time></trkpt><trkpt lat="45.589253000497955" lon="11.180012226089426"><ele>869.6666666666667</ele><time>2026-04-26T09:00:52.008Z</time></trkpt><trkpt lat="45.58923067507402" lon="11.180130075424188"><ele>869.5</ele><time>2026-04-26T09:00:55.008Z</time></trkpt><trkpt lat="45.58920371659604" lon="11.180211385421686"><ele>869.3333333333334</ele><time>2026-04-26T09:00:57.008Z</time></trkpt><trkpt lat="45.58915638858037" lon="11.18030395310694"><ele>869.1666666666667</ele><time>2026-04-26T09:01:00.008Z</time></trkpt><trkpt lat="45.589087167125975" lon="11.18037647407231"><ele>869.0</ele><time>2026-04-26T09:01:03.008Z</time></trkpt><trkpt lat="45.58902963327439" lon="11.180449864706379"><ele>869.0000000000001</ele><time>2026-04-26T09:01:06.008Z</time></trkpt><trkpt lat="45.58895869595305" lon="11.180501962061781"><ele>869.0</ele><time>2026-04-26T09:01:09.008Z</time></trkpt><trkpt lat="45.58888315238512" lon="11.180559919400068"><ele>869.0</ele><time>2026-04-26T09:01:12.008Z</time></trkpt><trkpt lat="45.58880747639997" lon="11.180608291742212"><ele>869.0</ele><time>2026-04-26T09:01:15.008Z</time></trkpt><trkpt lat="45.58873488761322" lon="11.180678186323894"><ele>869.0000000000001</ele><time>2026-04-26T09:01:18.008Z</time></trkpt><trkpt lat="45.58864030553138" lon="11.180688597626553"><ele>869.0</ele><time>2026-04-26T09:01:21.007Z</time></trkpt><trkpt lat="45.58855262516984" lon="11.180650570695812"><ele>867.0000000000001</ele><time>2026-04-26T09:01:24.007Z</time></trkpt><trkpt lat="45.58847258038726" lon="11.180625938393508"><ele>865.0</ele><time>2026-04-26T09:01:27.01Z</time></trkpt><trkpt lat="45.58839476049992" lon="11.18058254658251"><ele>863.0</ele><time>2026-04-26T09:01:30.01Z</time></trkpt><trkpt lat="45.58833333311806" lon="11.180530841709318"><ele>861.0</ele><time>2026-04-26T09:01:33.01Z</time></trkpt><trkpt lat="45.588275444027424" lon="11.18044052626173"><ele>859.0000000000001</ele><time>2026-04-26T09:01:36.01Z</time></trkpt><trkpt lat="45.58821551712178" lon="11.180358622308296"><ele>857.0</ele><time>2026-04-26T09:01:39.01Z</time></trkpt><trkpt lat="45.58815812081208" lon="11.180272773889934"><ele>857.0</ele><time>2026-04-26T09:01:42.01Z</time></trkpt><trkpt lat="45.58808790916639" lon="11.18019157141157"><ele>857.0</ele><time>2026-04-26T09:01:45.01Z</time></trkpt><trkpt lat="45.58802735021318" lon="11.180166585935945"><ele>857.0</ele><time>2026-04-26T09:01:47.01Z</time></trkpt><trkpt lat="45.58796123858237" lon="11.180097010753556"><ele>857.0</ele><time>2026-04-26T09:01:50.01Z</time></trkpt><trkpt lat="45.587898266596696" lon="11.180065571679423"><ele>857.0</ele><time>2026-04-26T09:01:52.01Z</time></trkpt><trkpt lat="45.58783339583326" lon="11.180032629490244"><ele>857.0</ele><time>2026-04-26T09:01:54.01Z</time></trkpt><trkpt lat="45.58775845543751" lon="11.18001816664384"><ele>857.0</ele><time>2026-04-26T09:01:56.01Z</time></trkpt><trkpt lat="45.58767929129193" lon="11.180044320537194"><ele>855.0000000000001</ele><time>2026-04-26T09:01:59.01Z</time></trkpt><trkpt lat="45.58761795377507" lon="11.18006782740897"><ele>853.0</ele><time>2026-04-26T09:02:01.01Z</time></trkpt><trkpt lat="45.58755016663184" lon="11.180070747891513"><ele>851.0</ele><time>2026-04-26T09:02:03.01Z</time></trkpt><trkpt lat="45.58745365816824" lon="11.180055733890587"><ele>849.0</ele><time>2026-04-26T09:02:06.01Z</time></trkpt><trkpt lat="45.587377606422514" lon="11.180009314432953"><ele>847.0000000000001</ele><time>2026-04-26T09:02:09.01Z</time></trkpt><trkpt lat="45.587339245162674" lon="11.17993694800153"><ele>845.0</ele><time>2026-04-26T09:02:11.01Z</time></trkpt><trkpt lat="45.58728112105951" lon="11.179851627196694"><ele>844.9999999999999</ele><time>2026-04-26T09:02:14.01Z</time></trkpt><trkpt lat="45.58722695664555" lon="11.179788315042929"><ele>845.0</ele><time>2026-04-26T09:02:17.009Z</time></trkpt><trkpt lat="45.58716175073037" lon="11.179755712760654"><ele>845.0</ele><time>2026-04-26T09:02:20.009Z</time></trkpt><trkpt lat="45.58708756385833" lon="11.179794716366843"><ele>845.0</ele><time>2026-04-26T09:02:23.009Z</time></trkpt><trkpt lat="45.58701785841536" lon="11.179835721851823"><ele>845.0</ele><time>2026-04-26T09:02:26.009Z</time></trkpt><trkpt lat="45.58696008494459" lon="11.179904153870988"><ele>844.9999999999999</ele><time>2026-04-26T09:02:29.009Z</time></trkpt><trkpt lat="45.586980424165404" lon="11.180000630433128"><ele>845.0</ele><time>2026-04-26T09:02:32.009Z</time></trkpt><trkpt lat="45.587019374547445" lon="11.180078255199833"><ele>845.0000000000001</ele><time>2026-04-26T09:02:34.009Z</time></trkpt><trkpt lat="45.58706606907067" lon="11.180172986282312"><ele>845.0</ele><time>2026-04-26T09:02:37.009Z</time></trkpt><trkpt lat="45.58710772980172" lon="11.180251338925704"><ele>845.0</ele><time>2026-04-26T09:02:39.009Z</time></trkpt><trkpt lat="45.58717317946952" lon="11.180345627070595"><ele>845.0</ele><time>2026-04-26T09:02:42.009Z</time></trkpt><trkpt lat="45.58723007692427" lon="11.180408254186482"><ele>845.0000000000001</ele><time>2026-04-26T09:02:44.009Z</time></trkpt><trkpt lat="45.5872950375194" lon="11.180495375621197"><ele>845.0</ele><time>2026-04-26T09:02:47.009Z</time></trkpt><trkpt lat="45.58735747319378" lon="11.180593196730868"><ele>844.6666666666667</ele><time>2026-04-26T09:02:50.009Z</time></trkpt><trkpt lat="45.58738482933694" lon="11.180694071351066"><ele>844.3333333333334</ele><time>2026-04-26T09:02:53.009Z</time></trkpt><trkpt lat="45.587371915374945" lon="11.180827863665211"><ele>844.0</ele><time>2026-04-26T09:02:56.009Z</time></trkpt><trkpt lat="45.587339866076825" lon="11.180945382000628"><ele>843.6666666666667</ele><time>2026-04-26T09:02:59.009Z</time></trkpt><trkpt lat="45.58732279027905" lon="11.181040441336377"><ele>843.3333333333334</ele><time>2026-04-26T09:03:02.009Z</time></trkpt><trkpt lat="45.58724654485576" lon="11.181073105785963"><ele>843.0</ele><time>2026-04-26T09:03:06.008Z</time></trkpt><trkpt lat="45.58725853510525" lon="11.180944919686816"><ele>843.0</ele><time>2026-04-26T09:03:09.008Z</time></trkpt><trkpt lat="45.587271278424765" lon="11.180852928212161"><ele>843.0</ele><time>2026-04-26T09:03:11.008Z</time></trkpt><trkpt lat="45.58724118893493" lon="11.180751989073233"><ele>843.0</ele><time>2026-04-26T09:03:13.008Z</time></trkpt><trkpt lat="45.58718460965094" lon="11.18066022321202"><ele>843.0</ele><time>2026-04-26T09:03:15.008Z</time></trkpt><trkpt lat="45.58712204006545" lon="11.180614947845287"><ele>843.0</ele><time>2026-04-26T09:03:17.008Z</time></trkpt><trkpt lat="45.58707293540446" lon="11.180540922026726"><ele>843.0</ele><time>2026-04-26T09:03:19.008Z</time></trkpt><trkpt lat="45.587007184893736" lon="11.18046770729132"><ele>828.0</ele><time>2026-04-26T09:03:21.008Z</time></trkpt><trkpt lat="45.586958398591776" lon="11.180399121998576"><ele>828.0</ele><time>2026-04-26T09:03:23.008Z</time></trkpt><trkpt lat="45.58688636575785" lon="11.180320283033351"><ele>828.0</ele><time>2026-04-26T09:03:26.008Z</time></trkpt><trkpt lat="45.58688636575785" lon="11.180320283033351"><ele>828.0</ele><time>2026-04-26T09:03:26.008Z</time></trkpt><trkpt lat="45.58688636575785" lon="11.180320283033351"><ele>828.0</ele><time>2026-04-26T09:03:26.008Z</time></trkpt></trkseg></trk></gpx>